<?xml version="1.0" encoding="UTF-8" standalone="no" ?>
<gpx xmlns="http://www.topografix.com/GPX/1/1" xmlns:xsi="http://www.w3.org/2001/XMLSchema-instance" xsi:schemaLocation="http://www.topografix.com/GPX/1/1 http://www.topografix.com/GPX/1/1/gpx.xsd" version="1.1" creator="VisuGPX - https://www.visugpx.com">
  <metadata>
    <name>BOURG ET COMIN 2019-10-07 </name>
    <desc><![CDATA[File with points/tracks from Locus Map/3.40.1]]></desc>
  </metadata>
  <trk>
    <name><![CDATA[2019-10-07 13:54:59]]></name>
    <trkseg>
      <trkpt lat="49.39577" lon="3.6548">
        <ele>65.85</ele>
        <time>2019-10-07T11:55:01.999Z</time>
      </trkpt>
      <trkpt lat="49.39578" lon="3.65477">
        <ele>65.85</ele>
        <time>2019-10-07T11:55:17.999Z</time>
      </trkpt>
      <trkpt lat="49.39581" lon="3.65462">
        <ele>65.85</ele>
        <time>2019-10-07T11:55:27.999Z</time>
      </trkpt>
      <trkpt lat="49.39578" lon="3.65478">
        <ele>65.85</ele>
        <time>2019-10-07T11:55:37.999Z</time>
      </trkpt>
      <trkpt lat="49.39577" lon="3.6548">
        <ele>65.85</ele>
        <time>2019-10-07T11:55:47.999Z</time>
      </trkpt>
      <trkpt lat="49.39578" lon="3.65481">
        <ele>65.85</ele>
        <time>2019-10-07T11:57:03.999Z</time>
      </trkpt>
      <trkpt lat="49.39589" lon="3.65488">
        <ele>65.85</ele>
        <time>2019-10-07T11:57:13.359Z</time>
      </trkpt>
      <trkpt lat="49.39594" lon="3.6548">
        <ele>65.85</ele>
        <time>2019-10-07T11:57:22.999Z</time>
      </trkpt>
      <trkpt lat="49.39596" lon="3.65477">
        <ele>65.85</ele>
        <time>2019-10-07T11:57:32.999Z</time>
      </trkpt>
      <trkpt lat="49.39598" lon="3.65473">
        <ele>65.85</ele>
        <time>2019-10-07T11:57:42.999Z</time>
      </trkpt>
      <trkpt lat="49.396" lon="3.65472">
        <ele>75.77</ele>
        <time>2019-10-07T11:58:27.999Z</time>
      </trkpt>
      <trkpt lat="49.39602" lon="3.6547">
        <ele>76.37</ele>
        <time>2019-10-07T11:58:37.999Z</time>
      </trkpt>
      <trkpt lat="49.39598" lon="3.65465">
        <ele>76.42</ele>
        <time>2019-10-07T11:58:47.999Z</time>
      </trkpt>
      <trkpt lat="49.39605" lon="3.65473">
        <ele>66.51</ele>
        <time>2019-10-07T11:58:57.999Z</time>
      </trkpt>
      <trkpt lat="49.39605" lon="3.65475">
        <ele>65.85</ele>
        <time>2019-10-07T11:59:34.999Z</time>
      </trkpt>
      <trkpt lat="49.39606" lon="3.65479">
        <ele>65.85</ele>
        <time>2019-10-07T11:59:44.999Z</time>
      </trkpt>
      <trkpt lat="49.39606" lon="3.6548">
        <ele>65.85</ele>
        <time>2019-10-07T11:59:56.999Z</time>
      </trkpt>
      <trkpt lat="49.39605" lon="3.65481">
        <ele>65.85</ele>
        <time>2019-10-07T12:00:06.999Z</time>
      </trkpt>
      <trkpt lat="49.39604" lon="3.65481">
        <ele>65.85</ele>
        <time>2019-10-07T12:00:16.999Z</time>
      </trkpt>
      <trkpt lat="49.39602" lon="3.65479">
        <ele>65.85</ele>
        <time>2019-10-07T12:00:26.999Z</time>
      </trkpt>
      <trkpt lat="49.39603" lon="3.65476">
        <ele>65.85</ele>
        <time>2019-10-07T12:00:36.999Z</time>
      </trkpt>
      <trkpt lat="49.39602" lon="3.65469">
        <ele>65.85</ele>
        <time>2019-10-07T12:00:46.999Z</time>
      </trkpt>
      <trkpt lat="49.39608" lon="3.65469">
        <ele>65.85</ele>
        <time>2019-10-07T12:00:56.999Z</time>
      </trkpt>
      <trkpt lat="49.39604" lon="3.65467">
        <ele>65.85</ele>
        <time>2019-10-07T12:01:06.999Z</time>
      </trkpt>
      <trkpt lat="49.39602" lon="3.65469">
        <ele>65.85</ele>
        <time>2019-10-07T12:01:16.999Z</time>
      </trkpt>
      <trkpt lat="49.39604" lon="3.65472">
        <ele>65.85</ele>
        <time>2019-10-07T12:01:26.999Z</time>
      </trkpt>
      <trkpt lat="49.39607" lon="3.65477">
        <ele>65.85</ele>
        <time>2019-10-07T12:01:36.999Z</time>
      </trkpt>
      <trkpt lat="49.39603" lon="3.65477">
        <ele>77.72</ele>
        <time>2019-10-07T12:01:46.999Z</time>
      </trkpt>
      <trkpt lat="49.39599" lon="3.65471">
        <ele>65.85</ele>
        <time>2019-10-07T12:01:56.999Z</time>
      </trkpt>
      <trkpt lat="49.396" lon="3.65474">
        <ele>65.85</ele>
        <time>2019-10-07T12:02:06.999Z</time>
      </trkpt>
      <trkpt lat="49.39601" lon="3.65475">
        <ele>65.85</ele>
        <time>2019-10-07T12:02:16.999Z</time>
      </trkpt>
      <trkpt lat="49.39598" lon="3.6547">
        <ele>65.85</ele>
        <time>2019-10-07T12:02:26.302Z</time>
      </trkpt>
      <trkpt lat="49.39598" lon="3.65465">
        <ele>65.85</ele>
        <time>2019-10-07T12:02:35.999Z</time>
      </trkpt>
      <trkpt lat="49.39602" lon="3.6547">
        <ele>65.85</ele>
        <time>2019-10-07T12:02:45.999Z</time>
      </trkpt>
      <trkpt lat="49.39602" lon="3.65468">
        <ele>65.85</ele>
        <time>2019-10-07T12:05:07.999Z</time>
      </trkpt>
      <trkpt lat="49.39597" lon="3.65463">
        <ele>65.85</ele>
        <time>2019-10-07T12:05:17.408Z</time>
      </trkpt>
      <trkpt lat="49.39606" lon="3.65443">
        <ele>65.85</ele>
        <time>2019-10-07T12:05:26.999Z</time>
      </trkpt>
      <trkpt lat="49.39609" lon="3.65425">
        <ele>65.85</ele>
        <time>2019-10-07T12:05:36.324Z</time>
      </trkpt>
      <trkpt lat="49.39613" lon="3.65411">
        <ele>65.85</ele>
        <time>2019-10-07T12:05:45.888Z</time>
      </trkpt>
      <trkpt lat="49.3962" lon="3.65394">
        <ele>65.85</ele>
        <time>2019-10-07T12:05:54.999Z</time>
      </trkpt>
      <trkpt lat="49.39621" lon="3.65379">
        <ele>65.85</ele>
        <time>2019-10-07T12:06:04.365Z</time>
      </trkpt>
      <trkpt lat="49.3962" lon="3.65362">
        <ele>65.85</ele>
        <time>2019-10-07T12:06:13.883Z</time>
      </trkpt>
      <trkpt lat="49.39617" lon="3.65345">
        <ele>71.01</ele>
        <time>2019-10-07T12:06:23.406Z</time>
      </trkpt>
      <trkpt lat="49.39614" lon="3.6533">
        <ele>70.27</ele>
        <time>2019-10-07T12:06:32.999Z</time>
      </trkpt>
      <trkpt lat="49.39614" lon="3.65312">
        <ele>69.77</ele>
        <time>2019-10-07T12:06:42.485Z</time>
      </trkpt>
      <trkpt lat="49.39617" lon="3.65294">
        <ele>69.8</ele>
        <time>2019-10-07T12:06:52.071Z</time>
      </trkpt>
      <trkpt lat="49.39618" lon="3.65277">
        <ele>69.8</ele>
        <time>2019-10-07T12:07:01.564Z</time>
      </trkpt>
      <trkpt lat="49.39621" lon="3.65263">
        <ele>69.54</ele>
        <time>2019-10-07T12:07:10.999Z</time>
      </trkpt>
      <trkpt lat="49.39623" lon="3.65246">
        <ele>69.43</ele>
        <time>2019-10-07T12:07:20.727Z</time>
      </trkpt>
      <trkpt lat="49.39626" lon="3.65232">
        <ele>69.33</ele>
        <time>2019-10-07T12:07:29.999Z</time>
      </trkpt>
      <trkpt lat="49.39631" lon="3.65215">
        <ele>69.05</ele>
        <time>2019-10-07T12:07:39.502Z</time>
      </trkpt>
      <trkpt lat="49.39633" lon="3.65199">
        <ele>68.92</ele>
        <time>2019-10-07T12:07:49.024Z</time>
      </trkpt>
      <trkpt lat="49.39635" lon="3.65184">
        <ele>68.92</ele>
        <time>2019-10-07T12:07:58.468Z</time>
      </trkpt>
      <trkpt lat="49.39638" lon="3.65166">
        <ele>68.94</ele>
        <time>2019-10-07T12:08:07.885Z</time>
      </trkpt>
      <trkpt lat="49.3964" lon="3.65149">
        <ele>68.75</ele>
        <time>2019-10-07T12:08:17.307Z</time>
      </trkpt>
      <trkpt lat="49.39642" lon="3.65132">
        <ele>68.84</ele>
        <time>2019-10-07T12:08:26.999Z</time>
      </trkpt>
      <trkpt lat="49.39643" lon="3.65114">
        <ele>69.06</ele>
        <time>2019-10-07T12:08:36.422Z</time>
      </trkpt>
      <trkpt lat="49.39642" lon="3.65096">
        <ele>69.29</ele>
        <time>2019-10-07T12:08:45.705Z</time>
      </trkpt>
      <trkpt lat="49.39639" lon="3.65079">
        <ele>69.34</ele>
        <time>2019-10-07T12:08:55.140Z</time>
      </trkpt>
      <trkpt lat="49.39637" lon="3.65063">
        <ele>69.2</ele>
        <time>2019-10-07T12:09:04.286Z</time>
      </trkpt>
      <trkpt lat="49.39631" lon="3.65045">
        <ele>68.54</ele>
        <time>2019-10-07T12:09:13.999Z</time>
      </trkpt>
      <trkpt lat="49.39628" lon="3.65028">
        <ele>67.53</ele>
        <time>2019-10-07T12:09:23.423Z</time>
      </trkpt>
      <trkpt lat="49.39625" lon="3.6501">
        <ele>66.17</ele>
        <time>2019-10-07T12:09:33.085Z</time>
      </trkpt>
      <trkpt lat="49.39622" lon="3.64993">
        <ele>65.01</ele>
        <time>2019-10-07T12:09:42.146Z</time>
      </trkpt>
      <trkpt lat="49.39622" lon="3.64982">
        <ele>63.78</ele>
        <time>2019-10-07T12:09:51.460Z</time>
      </trkpt>
      <trkpt lat="49.39619" lon="3.64968">
        <ele>62.77</ele>
        <time>2019-10-07T12:10:00.482Z</time>
      </trkpt>
      <trkpt lat="49.39615" lon="3.64959">
        <ele>62.77</ele>
        <time>2019-10-07T12:10:09.506Z</time>
      </trkpt>
      <trkpt lat="49.3961" lon="3.64949">
        <ele>62.75</ele>
        <time>2019-10-07T12:10:19.060Z</time>
      </trkpt>
      <trkpt lat="49.3961" lon="3.64933">
        <ele>62.65</ele>
        <time>2019-10-07T12:10:28.544Z</time>
      </trkpt>
      <trkpt lat="49.39611" lon="3.64912">
        <ele>62.43</ele>
        <time>2019-10-07T12:10:37.687Z</time>
      </trkpt>
      <trkpt lat="49.39612" lon="3.64893">
        <ele>61.95</ele>
        <time>2019-10-07T12:10:47.121Z</time>
      </trkpt>
      <trkpt lat="49.39612" lon="3.64872">
        <ele>61.18</ele>
        <time>2019-10-07T12:10:56.462Z</time>
      </trkpt>
      <trkpt lat="49.39614" lon="3.64858">
        <ele>60.13</ele>
        <time>2019-10-07T12:11:05.785Z</time>
      </trkpt>
      <trkpt lat="49.39613" lon="3.64841">
        <ele>59.58</ele>
        <time>2019-10-07T12:11:15.046Z</time>
      </trkpt>
      <trkpt lat="49.39611" lon="3.64823">
        <ele>59.27</ele>
        <time>2019-10-07T12:11:24.327Z</time>
      </trkpt>
      <trkpt lat="49.39614" lon="3.64805">
        <ele>59.21</ele>
        <time>2019-10-07T12:11:33.682Z</time>
      </trkpt>
      <trkpt lat="49.39616" lon="3.64792">
        <ele>59.59</ele>
        <time>2019-10-07T12:11:43.070Z</time>
      </trkpt>
      <trkpt lat="49.39624" lon="3.64787">
        <ele>60.13</ele>
        <time>2019-10-07T12:11:52.423Z</time>
      </trkpt>
      <trkpt lat="49.39631" lon="3.64783">
        <ele>60.19</ele>
        <time>2019-10-07T12:12:01.999Z</time>
      </trkpt>
      <trkpt lat="49.39641" lon="3.64778">
        <ele>59.21</ele>
        <time>2019-10-07T12:12:11.449Z</time>
      </trkpt>
      <trkpt lat="49.39648" lon="3.6477">
        <ele>58.72</ele>
        <time>2019-10-07T12:12:20.999Z</time>
      </trkpt>
      <trkpt lat="49.39656" lon="3.64756">
        <ele>58.52</ele>
        <time>2019-10-07T12:12:30.547Z</time>
      </trkpt>
      <trkpt lat="49.39664" lon="3.64747">
        <ele>58.33</ele>
        <time>2019-10-07T12:12:39.999Z</time>
      </trkpt>
      <trkpt lat="49.39674" lon="3.64737">
        <ele>58.22</ele>
        <time>2019-10-07T12:12:49.064Z</time>
      </trkpt>
      <trkpt lat="49.39685" lon="3.64728">
        <ele>57.97</ele>
        <time>2019-10-07T12:12:58.344Z</time>
      </trkpt>
      <trkpt lat="49.39696" lon="3.64725">
        <ele>57.37</ele>
        <time>2019-10-07T12:13:07.999Z</time>
      </trkpt>
      <trkpt lat="49.39708" lon="3.64717">
        <ele>56.8</ele>
        <time>2019-10-07T12:13:17.999Z</time>
      </trkpt>
      <trkpt lat="49.39717" lon="3.64707">
        <ele>56.07</ele>
        <time>2019-10-07T12:13:27.429Z</time>
      </trkpt>
      <trkpt lat="49.39725" lon="3.64697">
        <ele>55.65</ele>
        <time>2019-10-07T12:13:36.550Z</time>
      </trkpt>
      <trkpt lat="49.39734" lon="3.64689">
        <ele>55.71</ele>
        <time>2019-10-07T12:13:45.999Z</time>
      </trkpt>
      <trkpt lat="49.39745" lon="3.64682">
        <ele>55.68</ele>
        <time>2019-10-07T12:13:55.487Z</time>
      </trkpt>
      <trkpt lat="49.39756" lon="3.64673">
        <ele>55.35</ele>
        <time>2019-10-07T12:14:05.083Z</time>
      </trkpt>
      <trkpt lat="49.39767" lon="3.64662">
        <ele>55.3</ele>
        <time>2019-10-07T12:14:14.407Z</time>
      </trkpt>
      <trkpt lat="49.39779" lon="3.64655">
        <ele>56.59</ele>
        <time>2019-10-07T12:14:23.521Z</time>
      </trkpt>
      <trkpt lat="49.39789" lon="3.64649">
        <ele>58.1</ele>
        <time>2019-10-07T12:14:32.999Z</time>
      </trkpt>
      <trkpt lat="49.39799" lon="3.64642">
        <ele>59.33</ele>
        <time>2019-10-07T12:14:42.224Z</time>
      </trkpt>
      <trkpt lat="49.39806" lon="3.64636">
        <ele>60.3</ele>
        <time>2019-10-07T12:14:51.999Z</time>
      </trkpt>
      <trkpt lat="49.39809" lon="3.64634">
        <ele>61.44</ele>
        <time>2019-10-07T12:15:01.999Z</time>
      </trkpt>
      <trkpt lat="49.39811" lon="3.64636">
        <ele>62.18</ele>
        <time>2019-10-07T12:15:11.999Z</time>
      </trkpt>
      <trkpt lat="49.39813" lon="3.64643">
        <ele>62.84</ele>
        <time>2019-10-07T12:15:21.999Z</time>
      </trkpt>
      <trkpt lat="49.39815" lon="3.64646">
        <ele>63.05</ele>
        <time>2019-10-07T12:15:31.999Z</time>
      </trkpt>
      <trkpt lat="49.39815" lon="3.64646">
        <ele>63.9</ele>
        <time>2019-10-07T12:15:43.999Z</time>
      </trkpt>
      <trkpt lat="49.39819" lon="3.64644">
        <ele>64.86</ele>
        <time>2019-10-07T12:15:53.999Z</time>
      </trkpt>
      <trkpt lat="49.3982" lon="3.64636">
        <ele>65.32</ele>
        <time>2019-10-07T12:16:03.027Z</time>
      </trkpt>
      <trkpt lat="49.39821" lon="3.64627">
        <ele>65.6</ele>
        <time>2019-10-07T12:16:12.960Z</time>
      </trkpt>
      <trkpt lat="49.39834" lon="3.64625">
        <ele>66.01</ele>
        <time>2019-10-07T12:16:22.002Z</time>
      </trkpt>
      <trkpt lat="49.39846" lon="3.64628">
        <ele>66.27</ele>
        <time>2019-10-07T12:16:31.300Z</time>
      </trkpt>
      <trkpt lat="49.39854" lon="3.64626">
        <ele>66.82</ele>
        <time>2019-10-07T12:16:40.999Z</time>
      </trkpt>
      <trkpt lat="49.39865" lon="3.64626">
        <ele>67.77</ele>
        <time>2019-10-07T12:16:50.999Z</time>
      </trkpt>
      <trkpt lat="49.39875" lon="3.64625">
        <ele>68.45</ele>
        <time>2019-10-07T12:17:00.162Z</time>
      </trkpt>
      <trkpt lat="49.39884" lon="3.64626">
        <ele>69.11</ele>
        <time>2019-10-07T12:17:09.406Z</time>
      </trkpt>
      <trkpt lat="49.39895" lon="3.64639">
        <ele>69.58</ele>
        <time>2019-10-07T12:17:18.999Z</time>
      </trkpt>
      <trkpt lat="49.39905" lon="3.64649">
        <ele>70.57</ele>
        <time>2019-10-07T12:17:28.544Z</time>
      </trkpt>
      <trkpt lat="49.39915" lon="3.64656">
        <ele>71.34</ele>
        <time>2019-10-07T12:17:37.780Z</time>
      </trkpt>
      <trkpt lat="49.39924" lon="3.64661">
        <ele>72.1</ele>
        <time>2019-10-07T12:17:47.084Z</time>
      </trkpt>
      <trkpt lat="49.39934" lon="3.64664">
        <ele>73.01</ele>
        <time>2019-10-07T12:17:56.520Z</time>
      </trkpt>
      <trkpt lat="49.39943" lon="3.6467">
        <ele>74.13</ele>
        <time>2019-10-07T12:18:06.005Z</time>
      </trkpt>
      <trkpt lat="49.3995" lon="3.64672">
        <ele>75.06</ele>
        <time>2019-10-07T12:18:15.268Z</time>
      </trkpt>
      <trkpt lat="49.39959" lon="3.64674">
        <ele>75.95</ele>
        <time>2019-10-07T12:18:24.999Z</time>
      </trkpt>
      <trkpt lat="49.39968" lon="3.64677">
        <ele>76.56</ele>
        <time>2019-10-07T12:18:34.803Z</time>
      </trkpt>
      <trkpt lat="49.39977" lon="3.64682">
        <ele>76.36</ele>
        <time>2019-10-07T12:18:43.999Z</time>
      </trkpt>
      <trkpt lat="49.39984" lon="3.64692">
        <ele>76.33</ele>
        <time>2019-10-07T12:18:53.999Z</time>
      </trkpt>
      <trkpt lat="49.39993" lon="3.64698">
        <ele>77.05</ele>
        <time>2019-10-07T12:19:03.048Z</time>
      </trkpt>
      <trkpt lat="49.40002" lon="3.64706">
        <ele>77.9</ele>
        <time>2019-10-07T12:19:12.880Z</time>
      </trkpt>
      <trkpt lat="49.40009" lon="3.64712">
        <ele>79.15</ele>
        <time>2019-10-07T12:19:21.999Z</time>
      </trkpt>
      <trkpt lat="49.40017" lon="3.64714">
        <ele>80.42</ele>
        <time>2019-10-07T12:19:31.344Z</time>
      </trkpt>
      <trkpt lat="49.40025" lon="3.64719">
        <ele>81.85</ele>
        <time>2019-10-07T12:19:40.808Z</time>
      </trkpt>
      <trkpt lat="49.40033" lon="3.64722">
        <ele>82.81</ele>
        <time>2019-10-07T12:19:49.999Z</time>
      </trkpt>
      <trkpt lat="49.40043" lon="3.64729">
        <ele>83.67</ele>
        <time>2019-10-07T12:19:59.306Z</time>
      </trkpt>
      <trkpt lat="49.40053" lon="3.64736">
        <ele>84.94</ele>
        <time>2019-10-07T12:20:08.745Z</time>
      </trkpt>
      <trkpt lat="49.40061" lon="3.64745">
        <ele>86.66</ele>
        <time>2019-10-07T12:20:18.048Z</time>
      </trkpt>
      <trkpt lat="49.40069" lon="3.64758">
        <ele>87.93</ele>
        <time>2019-10-07T12:20:27.999Z</time>
      </trkpt>
      <trkpt lat="49.40076" lon="3.64771">
        <ele>88.61</ele>
        <time>2019-10-07T12:20:37.999Z</time>
      </trkpt>
      <trkpt lat="49.40081" lon="3.6478">
        <ele>89.21</ele>
        <time>2019-10-07T12:20:47.380Z</time>
      </trkpt>
      <trkpt lat="49.40085" lon="3.64789">
        <ele>88.98</ele>
        <time>2019-10-07T12:20:56.438Z</time>
      </trkpt>
      <trkpt lat="49.40089" lon="3.64797">
        <ele>88.68</ele>
        <time>2019-10-07T12:21:05.752Z</time>
      </trkpt>
      <trkpt lat="49.40094" lon="3.64808">
        <ele>88.47</ele>
        <time>2019-10-07T12:21:14.999Z</time>
      </trkpt>
      <trkpt lat="49.40099" lon="3.64822">
        <ele>88.35</ele>
        <time>2019-10-07T12:21:24.475Z</time>
      </trkpt>
      <trkpt lat="49.40103" lon="3.64832">
        <ele>88.71</ele>
        <time>2019-10-07T12:21:33.999Z</time>
      </trkpt>
      <trkpt lat="49.40111" lon="3.6484">
        <ele>90.54</ele>
        <time>2019-10-07T12:21:43.999Z</time>
      </trkpt>
      <trkpt lat="49.40115" lon="3.64851">
        <ele>92.61</ele>
        <time>2019-10-07T12:21:53.479Z</time>
      </trkpt>
      <trkpt lat="49.40119" lon="3.64863">
        <ele>94.64</ele>
        <time>2019-10-07T12:22:02.999Z</time>
      </trkpt>
      <trkpt lat="49.40126" lon="3.64872">
        <ele>96.37</ele>
        <time>2019-10-07T12:22:12.461Z</time>
      </trkpt>
      <trkpt lat="49.40133" lon="3.64881">
        <ele>97.98</ele>
        <time>2019-10-07T12:22:22.999Z</time>
      </trkpt>
      <trkpt lat="49.40144" lon="3.64892">
        <ele>99.2</ele>
        <time>2019-10-07T12:22:32.197Z</time>
      </trkpt>
      <trkpt lat="49.40153" lon="3.64897">
        <ele>99.82</ele>
        <time>2019-10-07T12:22:41.582Z</time>
      </trkpt>
      <trkpt lat="49.40163" lon="3.64898">
        <ele>100.34</ele>
        <time>2019-10-07T12:22:50.755Z</time>
      </trkpt>
      <trkpt lat="49.40173" lon="3.64899">
        <ele>100.83</ele>
        <time>2019-10-07T12:23:00.176Z</time>
      </trkpt>
      <trkpt lat="49.40181" lon="3.64902">
        <ele>101.32</ele>
        <time>2019-10-07T12:23:09.531Z</time>
      </trkpt>
      <trkpt lat="49.4019" lon="3.64909">
        <ele>101.51</ele>
        <time>2019-10-07T12:23:18.716Z</time>
      </trkpt>
      <trkpt lat="49.40196" lon="3.64919">
        <ele>101.49</ele>
        <time>2019-10-07T12:23:27.999Z</time>
      </trkpt>
      <trkpt lat="49.40199" lon="3.64933">
        <ele>101.71</ele>
        <time>2019-10-07T12:23:37.254Z</time>
      </trkpt>
      <trkpt lat="49.40203" lon="3.64943">
        <ele>102.14</ele>
        <time>2019-10-07T12:23:46.480Z</time>
      </trkpt>
      <trkpt lat="49.40212" lon="3.64948">
        <ele>102.63</ele>
        <time>2019-10-07T12:23:55.592Z</time>
      </trkpt>
      <trkpt lat="49.4022" lon="3.64949">
        <ele>103.77</ele>
        <time>2019-10-07T12:24:05.000Z</time>
      </trkpt>
      <trkpt lat="49.40229" lon="3.64949">
        <ele>105.18</ele>
        <time>2019-10-07T12:24:15.000Z</time>
      </trkpt>
      <trkpt lat="49.40239" lon="3.64946">
        <ele>106.3</ele>
        <time>2019-10-07T12:24:25.000Z</time>
      </trkpt>
      <trkpt lat="49.40248" lon="3.64943">
        <ele>107.07</ele>
        <time>2019-10-07T12:24:34.634Z</time>
      </trkpt>
      <trkpt lat="49.40256" lon="3.64945">
        <ele>108.24</ele>
        <time>2019-10-07T12:24:44.000Z</time>
      </trkpt>
      <trkpt lat="49.40264" lon="3.64948">
        <ele>108.98</ele>
        <time>2019-10-07T12:24:53.412Z</time>
      </trkpt>
      <trkpt lat="49.40271" lon="3.64949">
        <ele>109.53</ele>
        <time>2019-10-07T12:25:02.577Z</time>
      </trkpt>
      <trkpt lat="49.40276" lon="3.64951">
        <ele>110.77</ele>
        <time>2019-10-07T12:25:11.602Z</time>
      </trkpt>
      <trkpt lat="49.40276" lon="3.64955">
        <ele>112.36</ele>
        <time>2019-10-07T12:25:21.000Z</time>
      </trkpt>
      <trkpt lat="49.40278" lon="3.6496">
        <ele>113.16</ele>
        <time>2019-10-07T12:25:30.375Z</time>
      </trkpt>
      <trkpt lat="49.40279" lon="3.64963">
        <ele>114.08</ele>
        <time>2019-10-07T12:25:40.000Z</time>
      </trkpt>
      <trkpt lat="49.40284" lon="3.64973">
        <ele>115.12</ele>
        <time>2019-10-07T12:25:49.294Z</time>
      </trkpt>
      <trkpt lat="49.40294" lon="3.64978">
        <ele>116.33</ele>
        <time>2019-10-07T12:25:59.058Z</time>
      </trkpt>
      <trkpt lat="49.40301" lon="3.64985">
        <ele>117.47</ele>
        <time>2019-10-07T12:26:08.480Z</time>
      </trkpt>
      <trkpt lat="49.40305" lon="3.64989">
        <ele>118.73</ele>
        <time>2019-10-07T12:26:18.000Z</time>
      </trkpt>
      <trkpt lat="49.40313" lon="3.64993">
        <ele>119.51</ele>
        <time>2019-10-07T12:26:27.524Z</time>
      </trkpt>
      <trkpt lat="49.40322" lon="3.65004">
        <ele>119.6</ele>
        <time>2019-10-07T12:26:37.160Z</time>
      </trkpt>
      <trkpt lat="49.40331" lon="3.65015">
        <ele>119.75</ele>
        <time>2019-10-07T12:26:46.697Z</time>
      </trkpt>
      <trkpt lat="49.40332" lon="3.65025">
        <ele>120.71</ele>
        <time>2019-10-07T12:26:55.740Z</time>
      </trkpt>
      <trkpt lat="49.40336" lon="3.65037">
        <ele>122</ele>
        <time>2019-10-07T12:27:04.894Z</time>
      </trkpt>
      <trkpt lat="49.40342" lon="3.65046">
        <ele>123.87</ele>
        <time>2019-10-07T12:27:14.000Z</time>
      </trkpt>
      <trkpt lat="49.40348" lon="3.65057">
        <ele>125.27</ele>
        <time>2019-10-07T12:27:23.198Z</time>
      </trkpt>
      <trkpt lat="49.40351" lon="3.65068">
        <ele>126.17</ele>
        <time>2019-10-07T12:27:32.279Z</time>
      </trkpt>
      <trkpt lat="49.40355" lon="3.6508">
        <ele>127.5</ele>
        <time>2019-10-07T12:27:42.000Z</time>
      </trkpt>
      <trkpt lat="49.40365" lon="3.65092">
        <ele>128.83</ele>
        <time>2019-10-07T12:27:51.636Z</time>
      </trkpt>
      <trkpt lat="49.40373" lon="3.65101">
        <ele>130.15</ele>
        <time>2019-10-07T12:28:01.000Z</time>
      </trkpt>
      <trkpt lat="49.40379" lon="3.65112">
        <ele>131.46</ele>
        <time>2019-10-07T12:28:10.410Z</time>
      </trkpt>
      <trkpt lat="49.40386" lon="3.65128">
        <ele>132.32</ele>
        <time>2019-10-07T12:28:19.512Z</time>
      </trkpt>
      <trkpt lat="49.40396" lon="3.65136">
        <ele>132.72</ele>
        <time>2019-10-07T12:28:29.676Z</time>
      </trkpt>
      <trkpt lat="49.40405" lon="3.65143">
        <ele>132.41</ele>
        <time>2019-10-07T12:28:39.159Z</time>
      </trkpt>
      <trkpt lat="49.40416" lon="3.65148">
        <ele>131.42</ele>
        <time>2019-10-07T12:28:48.573Z</time>
      </trkpt>
      <trkpt lat="49.40428" lon="3.65148">
        <ele>130.74</ele>
        <time>2019-10-07T12:28:58.076Z</time>
      </trkpt>
      <trkpt lat="49.40438" lon="3.65148">
        <ele>130.64</ele>
        <time>2019-10-07T12:29:07.640Z</time>
      </trkpt>
      <trkpt lat="49.40448" lon="3.65149">
        <ele>130.66</ele>
        <time>2019-10-07T12:29:16.714Z</time>
      </trkpt>
      <trkpt lat="49.40458" lon="3.65154">
        <ele>130.51</ele>
        <time>2019-10-07T12:29:26.231Z</time>
      </trkpt>
      <trkpt lat="49.40466" lon="3.65161">
        <ele>130.39</ele>
        <time>2019-10-07T12:29:35.616Z</time>
      </trkpt>
      <trkpt lat="49.40474" lon="3.65171">
        <ele>131.1</ele>
        <time>2019-10-07T12:29:45.000Z</time>
      </trkpt>
      <trkpt lat="49.40482" lon="3.6518">
        <ele>132.01</ele>
        <time>2019-10-07T12:29:55.000Z</time>
      </trkpt>
      <trkpt lat="49.4049" lon="3.65186">
        <ele>132.35</ele>
        <time>2019-10-07T12:30:04.080Z</time>
      </trkpt>
      <trkpt lat="49.405" lon="3.65191">
        <ele>132.35</ele>
        <time>2019-10-07T12:30:13.613Z</time>
      </trkpt>
      <trkpt lat="49.40511" lon="3.65196">
        <ele>132.15</ele>
        <time>2019-10-07T12:30:23.000Z</time>
      </trkpt>
      <trkpt lat="49.40523" lon="3.652">
        <ele>131.7</ele>
        <time>2019-10-07T12:30:32.121Z</time>
      </trkpt>
      <trkpt lat="49.40533" lon="3.65203">
        <ele>131.04</ele>
        <time>2019-10-07T12:30:41.390Z</time>
      </trkpt>
      <trkpt lat="49.40544" lon="3.6521">
        <ele>130.79</ele>
        <time>2019-10-07T12:30:50.576Z</time>
      </trkpt>
      <trkpt lat="49.40554" lon="3.65215">
        <ele>130.75</ele>
        <time>2019-10-07T12:30:59.937Z</time>
      </trkpt>
      <trkpt lat="49.40565" lon="3.65216">
        <ele>130.98</ele>
        <time>2019-10-07T12:31:09.276Z</time>
      </trkpt>
      <trkpt lat="49.40575" lon="3.65219">
        <ele>131.25</ele>
        <time>2019-10-07T12:31:18.486Z</time>
      </trkpt>
      <trkpt lat="49.40585" lon="3.6522">
        <ele>131.34</ele>
        <time>2019-10-07T12:31:27.667Z</time>
      </trkpt>
      <trkpt lat="49.40595" lon="3.65223">
        <ele>131.35</ele>
        <time>2019-10-07T12:31:37.000Z</time>
      </trkpt>
      <trkpt lat="49.40607" lon="3.65225">
        <ele>131.39</ele>
        <time>2019-10-07T12:31:46.003Z</time>
      </trkpt>
      <trkpt lat="49.40618" lon="3.65223">
        <ele>131.62</ele>
        <time>2019-10-07T12:31:55.146Z</time>
      </trkpt>
      <trkpt lat="49.40629" lon="3.65221">
        <ele>132.06</ele>
        <time>2019-10-07T12:32:04.523Z</time>
      </trkpt>
      <trkpt lat="49.4064" lon="3.65222">
        <ele>132.45</ele>
        <time>2019-10-07T12:32:14.000Z</time>
      </trkpt>
      <trkpt lat="49.40651" lon="3.65222">
        <ele>132.83</ele>
        <time>2019-10-07T12:32:23.417Z</time>
      </trkpt>
      <trkpt lat="49.4066" lon="3.65225">
        <ele>132.7</ele>
        <time>2019-10-07T12:32:33.000Z</time>
      </trkpt>
      <trkpt lat="49.40669" lon="3.65226">
        <ele>132.47</ele>
        <time>2019-10-07T12:32:42.324Z</time>
      </trkpt>
      <trkpt lat="49.40681" lon="3.65222">
        <ele>132.89</ele>
        <time>2019-10-07T12:32:52.000Z</time>
      </trkpt>
      <trkpt lat="49.40692" lon="3.65218">
        <ele>133.58</ele>
        <time>2019-10-07T12:33:02.000Z</time>
      </trkpt>
      <trkpt lat="49.40701" lon="3.6522">
        <ele>134.5</ele>
        <time>2019-10-07T12:33:11.007Z</time>
      </trkpt>
      <trkpt lat="49.40708" lon="3.65234">
        <ele>136.07</ele>
        <time>2019-10-07T12:33:20.479Z</time>
      </trkpt>
      <trkpt lat="49.40708" lon="3.65251">
        <ele>138.19</ele>
        <time>2019-10-07T12:33:29.564Z</time>
      </trkpt>
      <trkpt lat="49.40705" lon="3.65268">
        <ele>140.2</ele>
        <time>2019-10-07T12:33:39.039Z</time>
      </trkpt>
      <trkpt lat="49.40701" lon="3.65281">
        <ele>141.76</ele>
        <time>2019-10-07T12:33:48.044Z</time>
      </trkpt>
      <trkpt lat="49.40697" lon="3.65293">
        <ele>143.33</ele>
        <time>2019-10-07T12:33:57.618Z</time>
      </trkpt>
      <trkpt lat="49.40693" lon="3.65305">
        <ele>144.9</ele>
        <time>2019-10-07T12:34:07.000Z</time>
      </trkpt>
      <trkpt lat="49.40689" lon="3.65317">
        <ele>145.99</ele>
        <time>2019-10-07T12:34:16.321Z</time>
      </trkpt>
      <trkpt lat="49.40683" lon="3.65328">
        <ele>146.55</ele>
        <time>2019-10-07T12:34:25.545Z</time>
      </trkpt>
      <trkpt lat="49.40683" lon="3.65339">
        <ele>147.06</ele>
        <time>2019-10-07T12:34:35.000Z</time>
      </trkpt>
      <trkpt lat="49.40683" lon="3.6534">
        <ele>147.45</ele>
        <time>2019-10-07T12:34:51.337Z</time>
      </trkpt>
      <trkpt lat="49.4068" lon="3.65365">
        <ele>148.09</ele>
        <time>2019-10-07T12:35:00.559Z</time>
      </trkpt>
      <trkpt lat="49.40679" lon="3.65371">
        <ele>148.6</ele>
        <time>2019-10-07T12:35:10.000Z</time>
      </trkpt>
      <trkpt lat="49.40678" lon="3.65373">
        <ele>149.02</ele>
        <time>2019-10-07T12:35:22.857Z</time>
      </trkpt>
      <trkpt lat="49.40676" lon="3.65378">
        <ele>149.06</ele>
        <time>2019-10-07T12:35:32.000Z</time>
      </trkpt>
      <trkpt lat="49.4067" lon="3.65396">
        <ele>149.31</ele>
        <time>2019-10-07T12:35:41.418Z</time>
      </trkpt>
      <trkpt lat="49.40666" lon="3.65408">
        <ele>149.94</ele>
        <time>2019-10-07T12:35:51.000Z</time>
      </trkpt>
      <trkpt lat="49.40662" lon="3.65422">
        <ele>150.35</ele>
        <time>2019-10-07T12:36:00.257Z</time>
      </trkpt>
      <trkpt lat="49.40659" lon="3.65437">
        <ele>150.52</ele>
        <time>2019-10-07T12:36:09.521Z</time>
      </trkpt>
      <trkpt lat="49.40655" lon="3.65448">
        <ele>150.67</ele>
        <time>2019-10-07T12:36:19.000Z</time>
      </trkpt>
      <trkpt lat="49.4065" lon="3.65461">
        <ele>150.92</ele>
        <time>2019-10-07T12:36:28.439Z</time>
      </trkpt>
      <trkpt lat="49.40651" lon="3.65476">
        <ele>151.41</ele>
        <time>2019-10-07T12:36:38.000Z</time>
      </trkpt>
      <trkpt lat="49.40645" lon="3.65486">
        <ele>151.87</ele>
        <time>2019-10-07T12:36:47.059Z</time>
      </trkpt>
      <trkpt lat="49.4064" lon="3.65502">
        <ele>152.34</ele>
        <time>2019-10-07T12:36:56.338Z</time>
      </trkpt>
      <trkpt lat="49.40637" lon="3.6552">
        <ele>152.37</ele>
        <time>2019-10-07T12:37:06.000Z</time>
      </trkpt>
      <trkpt lat="49.40635" lon="3.65539">
        <ele>151.78</ele>
        <time>2019-10-07T12:37:15.264Z</time>
      </trkpt>
      <trkpt lat="49.40632" lon="3.65555">
        <ele>151.01</ele>
        <time>2019-10-07T12:37:24.303Z</time>
      </trkpt>
      <trkpt lat="49.40627" lon="3.6557">
        <ele>149.91</ele>
        <time>2019-10-07T12:37:34.000Z</time>
      </trkpt>
      <trkpt lat="49.40621" lon="3.65583">
        <ele>148.65</ele>
        <time>2019-10-07T12:37:44.000Z</time>
      </trkpt>
      <trkpt lat="49.40616" lon="3.65597">
        <ele>147.68</ele>
        <time>2019-10-07T12:37:53.384Z</time>
      </trkpt>
      <trkpt lat="49.40612" lon="3.65612">
        <ele>147.17</ele>
        <time>2019-10-07T12:38:02.625Z</time>
      </trkpt>
      <trkpt lat="49.40607" lon="3.65627">
        <ele>146.95</ele>
        <time>2019-10-07T12:38:12.000Z</time>
      </trkpt>
      <trkpt lat="49.40602" lon="3.65643">
        <ele>146.95</ele>
        <time>2019-10-07T12:38:22.517Z</time>
      </trkpt>
      <trkpt lat="49.40596" lon="3.65656">
        <ele>146.35</ele>
        <time>2019-10-07T12:38:31.881Z</time>
      </trkpt>
      <trkpt lat="49.4059" lon="3.65668">
        <ele>145.39</ele>
        <time>2019-10-07T12:38:41.000Z</time>
      </trkpt>
      <trkpt lat="49.40584" lon="3.65682">
        <ele>144.38</ele>
        <time>2019-10-07T12:38:50.361Z</time>
      </trkpt>
      <trkpt lat="49.40576" lon="3.65694">
        <ele>143.89</ele>
        <time>2019-10-07T12:38:59.543Z</time>
      </trkpt>
      <trkpt lat="49.40568" lon="3.65705">
        <ele>143.87</ele>
        <time>2019-10-07T12:39:09.000Z</time>
      </trkpt>
      <trkpt lat="49.40559" lon="3.65716">
        <ele>144.34</ele>
        <time>2019-10-07T12:39:18.099Z</time>
      </trkpt>
      <trkpt lat="49.4055" lon="3.65723">
        <ele>144.55</ele>
        <time>2019-10-07T12:39:27.262Z</time>
      </trkpt>
      <trkpt lat="49.40542" lon="3.65731">
        <ele>144.21</ele>
        <time>2019-10-07T12:39:36.544Z</time>
      </trkpt>
      <trkpt lat="49.40535" lon="3.65738">
        <ele>143.92</ele>
        <time>2019-10-07T12:39:45.682Z</time>
      </trkpt>
      <trkpt lat="49.40526" lon="3.65744">
        <ele>143.94</ele>
        <time>2019-10-07T12:39:55.000Z</time>
      </trkpt>
      <trkpt lat="49.40518" lon="3.65755">
        <ele>143.68</ele>
        <time>2019-10-07T12:40:04.538Z</time>
      </trkpt>
      <trkpt lat="49.40511" lon="3.65768">
        <ele>142.96</ele>
        <time>2019-10-07T12:40:14.000Z</time>
      </trkpt>
      <trkpt lat="49.40511" lon="3.65773">
        <ele>142.14</ele>
        <time>2019-10-07T12:40:24.000Z</time>
      </trkpt>
      <trkpt lat="49.40511" lon="3.65778">
        <ele>141.46</ele>
        <time>2019-10-07T12:40:35.000Z</time>
      </trkpt>
      <trkpt lat="49.4051" lon="3.65779">
        <ele>141.01</ele>
        <time>2019-10-07T12:40:44.559Z</time>
      </trkpt>
      <trkpt lat="49.40507" lon="3.65795">
        <ele>140.56</ele>
        <time>2019-10-07T12:40:53.730Z</time>
      </trkpt>
      <trkpt lat="49.40507" lon="3.6581">
        <ele>140.1</ele>
        <time>2019-10-07T12:41:02.779Z</time>
      </trkpt>
      <trkpt lat="49.40511" lon="3.65818">
        <ele>139.84</ele>
        <time>2019-10-07T12:41:11.879Z</time>
      </trkpt>
      <trkpt lat="49.40512" lon="3.65823">
        <ele>139.39</ele>
        <time>2019-10-07T12:41:21.000Z</time>
      </trkpt>
      <trkpt lat="49.40518" lon="3.65843">
        <ele>138.88</ele>
        <time>2019-10-07T12:41:30.039Z</time>
      </trkpt>
      <trkpt lat="49.40524" lon="3.65856">
        <ele>138.32</ele>
        <time>2019-10-07T12:41:39.462Z</time>
      </trkpt>
      <trkpt lat="49.40531" lon="3.65866">
        <ele>137.75</ele>
        <time>2019-10-07T12:41:48.476Z</time>
      </trkpt>
      <trkpt lat="49.40543" lon="3.6587">
        <ele>137.37</ele>
        <time>2019-10-07T12:41:58.000Z</time>
      </trkpt>
      <trkpt lat="49.40558" lon="3.65867">
        <ele>137.1</ele>
        <time>2019-10-07T12:42:07.582Z</time>
      </trkpt>
      <trkpt lat="49.40567" lon="3.65861">
        <ele>137.12</ele>
        <time>2019-10-07T12:42:16.877Z</time>
      </trkpt>
      <trkpt lat="49.4057" lon="3.65856">
        <ele>136.94</ele>
        <time>2019-10-07T12:42:25.898Z</time>
      </trkpt>
      <trkpt lat="49.40575" lon="3.65855">
        <ele>136.99</ele>
        <time>2019-10-07T12:42:35.000Z</time>
      </trkpt>
      <trkpt lat="49.40576" lon="3.65857">
        <ele>136.84</ele>
        <time>2019-10-07T12:42:45.000Z</time>
      </trkpt>
      <trkpt lat="49.40577" lon="3.6586">
        <ele>136.28</ele>
        <time>2019-10-07T12:42:54.776Z</time>
      </trkpt>
      <trkpt lat="49.40578" lon="3.65859">
        <ele>135.95</ele>
        <time>2019-10-07T12:43:04.000Z</time>
      </trkpt>
      <trkpt lat="49.40577" lon="3.6585">
        <ele>135.79</ele>
        <time>2019-10-07T12:43:13.455Z</time>
      </trkpt>
      <trkpt lat="49.40568" lon="3.65854">
        <ele>135.45</ele>
        <time>2019-10-07T12:43:24.000Z</time>
      </trkpt>
      <trkpt lat="49.40567" lon="3.65857">
        <ele>134.32</ele>
        <time>2019-10-07T12:43:33.462Z</time>
      </trkpt>
      <trkpt lat="49.40566" lon="3.65861">
        <ele>132.45</ele>
        <time>2019-10-07T12:43:43.000Z</time>
      </trkpt>
      <trkpt lat="49.40578" lon="3.65862">
        <ele>130.75</ele>
        <time>2019-10-07T12:43:53.000Z</time>
      </trkpt>
      <trkpt lat="49.40591" lon="3.65858">
        <ele>130.29</ele>
        <time>2019-10-07T12:44:03.000Z</time>
      </trkpt>
      <trkpt lat="49.40592" lon="3.65858">
        <ele>130.67</ele>
        <time>2019-10-07T12:44:13.000Z</time>
      </trkpt>
      <trkpt lat="49.40596" lon="3.65855">
        <ele>130.92</ele>
        <time>2019-10-07T12:44:23.000Z</time>
      </trkpt>
      <trkpt lat="49.40596" lon="3.65853">
        <ele>130.97</ele>
        <time>2019-10-07T12:44:35.000Z</time>
      </trkpt>
      <trkpt lat="49.40595" lon="3.65847">
        <ele>131.34</ele>
        <time>2019-10-07T12:44:45.000Z</time>
      </trkpt>
      <trkpt lat="49.40593" lon="3.65848">
        <ele>131.47</ele>
        <time>2019-10-07T12:44:54.057Z</time>
      </trkpt>
      <trkpt lat="49.40592" lon="3.65848">
        <ele>131.61</ele>
        <time>2019-10-07T12:45:04.000Z</time>
      </trkpt>
      <trkpt lat="49.40591" lon="3.6585">
        <ele>131.49</ele>
        <time>2019-10-07T12:45:14.314Z</time>
      </trkpt>
      <trkpt lat="49.4059" lon="3.6585">
        <ele>130.37</ele>
        <time>2019-10-07T12:45:30.000Z</time>
      </trkpt>
      <trkpt lat="49.40588" lon="3.6585">
        <ele>129.71</ele>
        <time>2019-10-07T12:45:40.000Z</time>
      </trkpt>
      <trkpt lat="49.40588" lon="3.65845">
        <ele>127.87</ele>
        <time>2019-10-07T12:46:44.000Z</time>
      </trkpt>
      <trkpt lat="49.40589" lon="3.65847">
        <ele>128.61</ele>
        <time>2019-10-07T12:46:56.000Z</time>
      </trkpt>
      <trkpt lat="49.40589" lon="3.65848">
        <ele>129.68</ele>
        <time>2019-10-07T12:47:06.077Z</time>
      </trkpt>
      <trkpt lat="49.40593" lon="3.65855">
        <ele>130</ele>
        <time>2019-10-07T12:47:16.000Z</time>
      </trkpt>
      <trkpt lat="49.40598" lon="3.65857">
        <ele>130.11</ele>
        <time>2019-10-07T12:47:25.301Z</time>
      </trkpt>
      <trkpt lat="49.40604" lon="3.6586">
        <ele>130.47</ele>
        <time>2019-10-07T12:47:35.015Z</time>
      </trkpt>
      <trkpt lat="49.40611" lon="3.65864">
        <ele>131.11</ele>
        <time>2019-10-07T12:47:44.458Z</time>
      </trkpt>
      <trkpt lat="49.40616" lon="3.65866">
        <ele>131.59</ele>
        <time>2019-10-07T12:47:54.000Z</time>
      </trkpt>
      <trkpt lat="49.4062" lon="3.65867">
        <ele>131.52</ele>
        <time>2019-10-07T12:48:03.443Z</time>
      </trkpt>
      <trkpt lat="49.40621" lon="3.65869">
        <ele>131.54</ele>
        <time>2019-10-07T12:48:13.000Z</time>
      </trkpt>
      <trkpt lat="49.40623" lon="3.65869">
        <ele>131.37</ele>
        <time>2019-10-07T12:48:26.337Z</time>
      </trkpt>
      <trkpt lat="49.40627" lon="3.65875">
        <ele>130.79</ele>
        <time>2019-10-07T12:48:35.481Z</time>
      </trkpt>
      <trkpt lat="49.40635" lon="3.6588">
        <ele>130.21</ele>
        <time>2019-10-07T12:48:45.000Z</time>
      </trkpt>
      <trkpt lat="49.4064" lon="3.65883">
        <ele>130.01</ele>
        <time>2019-10-07T12:48:55.000Z</time>
      </trkpt>
      <trkpt lat="49.40641" lon="3.65884">
        <ele>128.91</ele>
        <time>2019-10-07T12:49:08.000Z</time>
      </trkpt>
      <trkpt lat="49.40648" lon="3.65894">
        <ele>128.54</ele>
        <time>2019-10-07T12:49:17.377Z</time>
      </trkpt>
      <trkpt lat="49.40657" lon="3.65901">
        <ele>129.01</ele>
        <time>2019-10-07T12:49:26.477Z</time>
      </trkpt>
      <trkpt lat="49.40666" lon="3.65903">
        <ele>129.41</ele>
        <time>2019-10-07T12:49:36.000Z</time>
      </trkpt>
      <trkpt lat="49.40679" lon="3.65916">
        <ele>129.75</ele>
        <time>2019-10-07T12:49:46.000Z</time>
      </trkpt>
      <trkpt lat="49.40685" lon="3.6593">
        <ele>130.12</ele>
        <time>2019-10-07T12:49:55.363Z</time>
      </trkpt>
      <trkpt lat="49.40691" lon="3.65944">
        <ele>130.48</ele>
        <time>2019-10-07T12:50:04.399Z</time>
      </trkpt>
      <trkpt lat="49.40699" lon="3.65955">
        <ele>130.83</ele>
        <time>2019-10-07T12:50:13.761Z</time>
      </trkpt>
      <trkpt lat="49.40708" lon="3.65961">
        <ele>131.04</ele>
        <time>2019-10-07T12:50:23.122Z</time>
      </trkpt>
      <trkpt lat="49.40716" lon="3.65969">
        <ele>130.87</ele>
        <time>2019-10-07T12:50:32.577Z</time>
      </trkpt>
      <trkpt lat="49.40723" lon="3.65979">
        <ele>130.58</ele>
        <time>2019-10-07T12:50:41.938Z</time>
      </trkpt>
      <trkpt lat="49.40728" lon="3.65989">
        <ele>130.37</ele>
        <time>2019-10-07T12:50:51.000Z</time>
      </trkpt>
      <trkpt lat="49.40729" lon="3.66006">
        <ele>129.84</ele>
        <time>2019-10-07T12:51:00.253Z</time>
      </trkpt>
      <trkpt lat="49.40728" lon="3.66019">
        <ele>128.94</ele>
        <time>2019-10-07T12:51:09.298Z</time>
      </trkpt>
      <trkpt lat="49.40727" lon="3.66029">
        <ele>128.08</ele>
        <time>2019-10-07T12:51:18.339Z</time>
      </trkpt>
      <trkpt lat="49.40727" lon="3.66036">
        <ele>127.18</ele>
        <time>2019-10-07T12:51:28.000Z</time>
      </trkpt>
      <trkpt lat="49.40728" lon="3.66048">
        <ele>126.32</ele>
        <time>2019-10-07T12:51:37.157Z</time>
      </trkpt>
      <trkpt lat="49.40723" lon="3.66057">
        <ele>125.78</ele>
        <time>2019-10-07T12:51:47.000Z</time>
      </trkpt>
      <trkpt lat="49.40722" lon="3.66066">
        <ele>125.48</ele>
        <time>2019-10-07T12:51:57.443Z</time>
      </trkpt>
      <trkpt lat="49.4072" lon="3.66076">
        <ele>124.93</ele>
        <time>2019-10-07T12:52:06.755Z</time>
      </trkpt>
      <trkpt lat="49.40722" lon="3.66088">
        <ele>123.92</ele>
        <time>2019-10-07T12:52:15.961Z</time>
      </trkpt>
      <trkpt lat="49.40723" lon="3.661">
        <ele>122.28</ele>
        <time>2019-10-07T12:52:25.284Z</time>
      </trkpt>
      <trkpt lat="49.40724" lon="3.66111">
        <ele>120.09</ele>
        <time>2019-10-07T12:52:35.000Z</time>
      </trkpt>
      <trkpt lat="49.40726" lon="3.66124">
        <ele>117.86</ele>
        <time>2019-10-07T12:52:45.000Z</time>
      </trkpt>
      <trkpt lat="49.4073" lon="3.66135">
        <ele>116.16</ele>
        <time>2019-10-07T12:52:54.061Z</time>
      </trkpt>
      <trkpt lat="49.40734" lon="3.66136">
        <ele>114.54</ele>
        <time>2019-10-07T12:53:03.467Z</time>
      </trkpt>
      <trkpt lat="49.40737" lon="3.66135">
        <ele>113</ele>
        <time>2019-10-07T12:53:13.000Z</time>
      </trkpt>
      <trkpt lat="49.40741" lon="3.66146">
        <ele>111.27</ele>
        <time>2019-10-07T12:53:23.000Z</time>
      </trkpt>
      <trkpt lat="49.40742" lon="3.66159">
        <ele>109.27</ele>
        <time>2019-10-07T12:53:33.000Z</time>
      </trkpt>
      <trkpt lat="49.40746" lon="3.66171">
        <ele>107.88</ele>
        <time>2019-10-07T12:53:43.000Z</time>
      </trkpt>
      <trkpt lat="49.40753" lon="3.66185">
        <ele>107.13</ele>
        <time>2019-10-07T12:53:52.476Z</time>
      </trkpt>
      <trkpt lat="49.40756" lon="3.66197">
        <ele>106.61</ele>
        <time>2019-10-07T12:54:02.000Z</time>
      </trkpt>
      <trkpt lat="49.40762" lon="3.66209">
        <ele>106.2</ele>
        <time>2019-10-07T12:54:11.054Z</time>
      </trkpt>
      <trkpt lat="49.40769" lon="3.66222">
        <ele>105.51</ele>
        <time>2019-10-07T12:54:20.319Z</time>
      </trkpt>
      <trkpt lat="49.40777" lon="3.66231">
        <ele>104.85</ele>
        <time>2019-10-07T12:54:29.378Z</time>
      </trkpt>
      <trkpt lat="49.40785" lon="3.66238">
        <ele>104.11</ele>
        <time>2019-10-07T12:54:39.000Z</time>
      </trkpt>
      <trkpt lat="49.40794" lon="3.66244">
        <ele>103.42</ele>
        <time>2019-10-07T12:54:48.095Z</time>
      </trkpt>
      <trkpt lat="49.40802" lon="3.66254">
        <ele>102.7</ele>
        <time>2019-10-07T12:54:57.460Z</time>
      </trkpt>
      <trkpt lat="49.40809" lon="3.66262">
        <ele>101.91</ele>
        <time>2019-10-07T12:55:06.463Z</time>
      </trkpt>
      <trkpt lat="49.40817" lon="3.6627">
        <ele>101.14</ele>
        <time>2019-10-07T12:55:16.000Z</time>
      </trkpt>
      <trkpt lat="49.40827" lon="3.66275">
        <ele>100.48</ele>
        <time>2019-10-07T12:55:26.000Z</time>
      </trkpt>
      <trkpt lat="49.40835" lon="3.66285">
        <ele>100.15</ele>
        <time>2019-10-07T12:55:36.000Z</time>
      </trkpt>
      <trkpt lat="49.40838" lon="3.66289">
        <ele>99.82</ele>
        <time>2019-10-07T12:55:46.000Z</time>
      </trkpt>
      <trkpt lat="49.40846" lon="3.66299">
        <ele>99.53</ele>
        <time>2019-10-07T12:55:56.000Z</time>
      </trkpt>
      <trkpt lat="49.40848" lon="3.6632">
        <ele>99.36</ele>
        <time>2019-10-07T12:56:05.476Z</time>
      </trkpt>
      <trkpt lat="49.40846" lon="3.66336">
        <ele>98.57</ele>
        <time>2019-10-07T12:56:15.000Z</time>
      </trkpt>
      <trkpt lat="49.40843" lon="3.66352">
        <ele>97.45</ele>
        <time>2019-10-07T12:56:24.254Z</time>
      </trkpt>
      <trkpt lat="49.40835" lon="3.66363">
        <ele>96.43</ele>
        <time>2019-10-07T12:56:33.318Z</time>
      </trkpt>
      <trkpt lat="49.40826" lon="3.66371">
        <ele>95.58</ele>
        <time>2019-10-07T12:56:43.000Z</time>
      </trkpt>
      <trkpt lat="49.40825" lon="3.6637">
        <ele>95.56</ele>
        <time>2019-10-07T12:56:53.000Z</time>
      </trkpt>
      <trkpt lat="49.40824" lon="3.66372">
        <ele>96.02</ele>
        <time>2019-10-07T12:57:03.000Z</time>
      </trkpt>
      <trkpt lat="49.40825" lon="3.66373">
        <ele>96.34</ele>
        <time>2019-10-07T12:57:13.000Z</time>
      </trkpt>
      <trkpt lat="49.40815" lon="3.66384">
        <ele>96.53</ele>
        <time>2019-10-07T12:57:23.000Z</time>
      </trkpt>
      <trkpt lat="49.40807" lon="3.66391">
        <ele>96.23</ele>
        <time>2019-10-07T12:57:32.059Z</time>
      </trkpt>
      <trkpt lat="49.40801" lon="3.66403">
        <ele>95.71</ele>
        <time>2019-10-07T12:57:41.563Z</time>
      </trkpt>
      <trkpt lat="49.40794" lon="3.66414">
        <ele>95.02</ele>
        <time>2019-10-07T12:57:50.915Z</time>
      </trkpt>
      <trkpt lat="49.40787" lon="3.66423">
        <ele>94.09</ele>
        <time>2019-10-07T12:58:00.000Z</time>
      </trkpt>
      <trkpt lat="49.4078" lon="3.66434">
        <ele>93.37</ele>
        <time>2019-10-07T12:58:10.000Z</time>
      </trkpt>
      <trkpt lat="49.40775" lon="3.66447">
        <ele>92.96</ele>
        <time>2019-10-07T12:58:19.296Z</time>
      </trkpt>
      <trkpt lat="49.40771" lon="3.66458">
        <ele>92.86</ele>
        <time>2019-10-07T12:58:29.000Z</time>
      </trkpt>
      <trkpt lat="49.40765" lon="3.66468">
        <ele>92.65</ele>
        <time>2019-10-07T12:58:39.000Z</time>
      </trkpt>
      <trkpt lat="49.40762" lon="3.66475">
        <ele>92.67</ele>
        <time>2019-10-07T12:58:48.336Z</time>
      </trkpt>
      <trkpt lat="49.40761" lon="3.66479">
        <ele>92.85</ele>
        <time>2019-10-07T12:58:58.000Z</time>
      </trkpt>
      <trkpt lat="49.4076" lon="3.66479">
        <ele>92.95</ele>
        <time>2019-10-07T12:59:09.000Z</time>
      </trkpt>
      <trkpt lat="49.40761" lon="3.66474">
        <ele>93.04</ele>
        <time>2019-10-07T12:59:19.000Z</time>
      </trkpt>
      <trkpt lat="49.4076" lon="3.66474">
        <ele>93.32</ele>
        <time>2019-10-07T12:59:41.000Z</time>
      </trkpt>
      <trkpt lat="49.40759" lon="3.6648">
        <ele>93.49</ele>
        <time>2019-10-07T12:59:51.000Z</time>
      </trkpt>
      <trkpt lat="49.40766" lon="3.66492">
        <ele>93.01</ele>
        <time>2019-10-07T13:00:00.001Z</time>
      </trkpt>
      <trkpt lat="49.40772" lon="3.66505">
        <ele>92.64</ele>
        <time>2019-10-07T13:00:10.000Z</time>
      </trkpt>
      <trkpt lat="49.40777" lon="3.66515">
        <ele>92.19</ele>
        <time>2019-10-07T13:00:20.000Z</time>
      </trkpt>
      <trkpt lat="49.40781" lon="3.66523">
        <ele>92.16</ele>
        <time>2019-10-07T13:00:29.319Z</time>
      </trkpt>
      <trkpt lat="49.40788" lon="3.66532">
        <ele>91.92</ele>
        <time>2019-10-07T13:00:38.356Z</time>
      </trkpt>
      <trkpt lat="49.40796" lon="3.66542">
        <ele>91.79</ele>
        <time>2019-10-07T13:00:48.000Z</time>
      </trkpt>
      <trkpt lat="49.40802" lon="3.66555">
        <ele>91.74</ele>
        <time>2019-10-07T13:00:58.000Z</time>
      </trkpt>
      <trkpt lat="49.40809" lon="3.66562">
        <ele>91.73</ele>
        <time>2019-10-07T13:01:08.000Z</time>
      </trkpt>
      <trkpt lat="49.4081" lon="3.66559">
        <ele>91.67</ele>
        <time>2019-10-07T13:01:24.000Z</time>
      </trkpt>
      <trkpt lat="49.4081" lon="3.66557">
        <ele>91.6</ele>
        <time>2019-10-07T13:01:34.000Z</time>
      </trkpt>
      <trkpt lat="49.4081" lon="3.66559">
        <ele>85.44</ele>
        <time>2019-10-07T13:04:26.295Z</time>
      </trkpt>
      <trkpt lat="49.40814" lon="3.66561">
        <ele>85.68</ele>
        <time>2019-10-07T13:04:36.000Z</time>
      </trkpt>
      <trkpt lat="49.40825" lon="3.66583">
        <ele>86.42</ele>
        <time>2019-10-07T13:04:45.237Z</time>
      </trkpt>
      <trkpt lat="49.40833" lon="3.66598">
        <ele>87.08</ele>
        <time>2019-10-07T13:04:54.541Z</time>
      </trkpt>
      <trkpt lat="49.40839" lon="3.66612">
        <ele>87.39</ele>
        <time>2019-10-07T13:05:04.000Z</time>
      </trkpt>
      <trkpt lat="49.40851" lon="3.66625">
        <ele>87.45</ele>
        <time>2019-10-07T13:05:14.000Z</time>
      </trkpt>
      <trkpt lat="49.40863" lon="3.66628">
        <ele>87.21</ele>
        <time>2019-10-07T13:05:23.396Z</time>
      </trkpt>
      <trkpt lat="49.40864" lon="3.66645">
        <ele>87.11</ele>
        <time>2019-10-07T13:05:32.620Z</time>
      </trkpt>
      <trkpt lat="49.40872" lon="3.66653">
        <ele>86.94</ele>
        <time>2019-10-07T13:05:41.876Z</time>
      </trkpt>
      <trkpt lat="49.40878" lon="3.66664">
        <ele>86.72</ele>
        <time>2019-10-07T13:05:52.000Z</time>
      </trkpt>
      <trkpt lat="49.40884" lon="3.66676">
        <ele>86.36</ele>
        <time>2019-10-07T13:06:01.102Z</time>
      </trkpt>
      <trkpt lat="49.40893" lon="3.66688">
        <ele>85.88</ele>
        <time>2019-10-07T13:06:10.337Z</time>
      </trkpt>
      <trkpt lat="49.40902" lon="3.66701">
        <ele>86.05</ele>
        <time>2019-10-07T13:06:20.000Z</time>
      </trkpt>
      <trkpt lat="49.40908" lon="3.66717">
        <ele>86.11</ele>
        <time>2019-10-07T13:06:30.000Z</time>
      </trkpt>
      <trkpt lat="49.40916" lon="3.66735">
        <ele>86.01</ele>
        <time>2019-10-07T13:06:39.401Z</time>
      </trkpt>
      <trkpt lat="49.40924" lon="3.66748">
        <ele>85.38</ele>
        <time>2019-10-07T13:06:49.000Z</time>
      </trkpt>
      <trkpt lat="49.40932" lon="3.66763">
        <ele>84.74</ele>
        <time>2019-10-07T13:06:58.416Z</time>
      </trkpt>
      <trkpt lat="49.4094" lon="3.66778">
        <ele>84.85</ele>
        <time>2019-10-07T13:07:08.001Z</time>
      </trkpt>
      <trkpt lat="49.40947" lon="3.66792">
        <ele>85.99</ele>
        <time>2019-10-07T13:07:18.000Z</time>
      </trkpt>
      <trkpt lat="49.40955" lon="3.66805">
        <ele>87</ele>
        <time>2019-10-07T13:07:27.596Z</time>
      </trkpt>
      <trkpt lat="49.40961" lon="3.66819">
        <ele>87.46</ele>
        <time>2019-10-07T13:07:37.000Z</time>
      </trkpt>
      <trkpt lat="49.4097" lon="3.66831">
        <ele>87.51</ele>
        <time>2019-10-07T13:07:46.400Z</time>
      </trkpt>
      <trkpt lat="49.4098" lon="3.66837">
        <ele>87.39</ele>
        <time>2019-10-07T13:07:55.782Z</time>
      </trkpt>
      <trkpt lat="49.40988" lon="3.66845">
        <ele>86.79</ele>
        <time>2019-10-07T13:08:05.075Z</time>
      </trkpt>
      <trkpt lat="49.40995" lon="3.66854">
        <ele>86.29</ele>
        <time>2019-10-07T13:08:14.382Z</time>
      </trkpt>
      <trkpt lat="49.41006" lon="3.66865">
        <ele>85.88</ele>
        <time>2019-10-07T13:08:23.740Z</time>
      </trkpt>
      <trkpt lat="49.41013" lon="3.66876">
        <ele>85.12</ele>
        <time>2019-10-07T13:08:33.000Z</time>
      </trkpt>
      <trkpt lat="49.41022" lon="3.6689">
        <ele>84.65</ele>
        <time>2019-10-07T13:08:42.276Z</time>
      </trkpt>
      <trkpt lat="49.41027" lon="3.66902">
        <ele>84.26</ele>
        <time>2019-10-07T13:08:52.000Z</time>
      </trkpt>
      <trkpt lat="49.41032" lon="3.66909">
        <ele>84.14</ele>
        <time>2019-10-07T13:09:01.638Z</time>
      </trkpt>
      <trkpt lat="49.41039" lon="3.66916">
        <ele>84.8</ele>
        <time>2019-10-07T13:09:10.938Z</time>
      </trkpt>
      <trkpt lat="49.41048" lon="3.66916">
        <ele>85.19</ele>
        <time>2019-10-07T13:09:20.202Z</time>
      </trkpt>
      <trkpt lat="49.41056" lon="3.66931">
        <ele>85.57</ele>
        <time>2019-10-07T13:09:29.636Z</time>
      </trkpt>
      <trkpt lat="49.41069" lon="3.66954">
        <ele>85.63</ele>
        <time>2019-10-07T13:09:39.240Z</time>
      </trkpt>
      <trkpt lat="49.41077" lon="3.66967">
        <ele>86.31</ele>
        <time>2019-10-07T13:09:49.000Z</time>
      </trkpt>
      <trkpt lat="49.41084" lon="3.66981">
        <ele>87.1</ele>
        <time>2019-10-07T13:09:58.382Z</time>
      </trkpt>
      <trkpt lat="49.4109" lon="3.66995">
        <ele>87.34</ele>
        <time>2019-10-07T13:10:07.475Z</time>
      </trkpt>
      <trkpt lat="49.41098" lon="3.67011">
        <ele>87.05</ele>
        <time>2019-10-07T13:10:16.715Z</time>
      </trkpt>
      <trkpt lat="49.41107" lon="3.67025">
        <ele>86.84</ele>
        <time>2019-10-07T13:10:26.000Z</time>
      </trkpt>
      <trkpt lat="49.41117" lon="3.67042">
        <ele>86.61</ele>
        <time>2019-10-07T13:10:35.457Z</time>
      </trkpt>
      <trkpt lat="49.41126" lon="3.67059">
        <ele>86.43</ele>
        <time>2019-10-07T13:10:44.656Z</time>
      </trkpt>
      <trkpt lat="49.41136" lon="3.67071">
        <ele>85.96</ele>
        <time>2019-10-07T13:10:54.000Z</time>
      </trkpt>
      <trkpt lat="49.41145" lon="3.67085">
        <ele>85.66</ele>
        <time>2019-10-07T13:11:03.182Z</time>
      </trkpt>
      <trkpt lat="49.41153" lon="3.671">
        <ele>85.6</ele>
        <time>2019-10-07T13:11:12.715Z</time>
      </trkpt>
      <trkpt lat="49.41161" lon="3.67113">
        <ele>85.8</ele>
        <time>2019-10-07T13:11:22.297Z</time>
      </trkpt>
      <trkpt lat="49.41177" lon="3.67129">
        <ele>86.64</ele>
        <time>2019-10-07T13:11:32.200Z</time>
      </trkpt>
      <trkpt lat="49.41186" lon="3.6714">
        <ele>86.94</ele>
        <time>2019-10-07T13:11:41.214Z</time>
      </trkpt>
      <trkpt lat="49.41194" lon="3.6715">
        <ele>87.38</ele>
        <time>2019-10-07T13:11:51.000Z</time>
      </trkpt>
      <trkpt lat="49.41204" lon="3.67167">
        <ele>87.94</ele>
        <time>2019-10-07T13:12:01.000Z</time>
      </trkpt>
      <trkpt lat="49.41213" lon="3.67177">
        <ele>88.05</ele>
        <time>2019-10-07T13:12:10.419Z</time>
      </trkpt>
      <trkpt lat="49.4122" lon="3.67189">
        <ele>88.09</ele>
        <time>2019-10-07T13:12:20.000Z</time>
      </trkpt>
      <trkpt lat="49.41229" lon="3.67202">
        <ele>88.08</ele>
        <time>2019-10-07T13:12:29.397Z</time>
      </trkpt>
      <trkpt lat="49.41236" lon="3.67213">
        <ele>88.32</ele>
        <time>2019-10-07T13:12:39.000Z</time>
      </trkpt>
      <trkpt lat="49.41244" lon="3.67226">
        <ele>88.68</ele>
        <time>2019-10-07T13:12:49.000Z</time>
      </trkpt>
      <trkpt lat="49.41253" lon="3.67236">
        <ele>88.88</ele>
        <time>2019-10-07T13:12:58.202Z</time>
      </trkpt>
      <trkpt lat="49.41261" lon="3.67246">
        <ele>88.85</ele>
        <time>2019-10-07T13:13:08.000Z</time>
      </trkpt>
      <trkpt lat="49.41267" lon="3.67258">
        <ele>88.76</ele>
        <time>2019-10-07T13:13:17.075Z</time>
      </trkpt>
      <trkpt lat="49.41274" lon="3.67269">
        <ele>88.64</ele>
        <time>2019-10-07T13:13:26.473Z</time>
      </trkpt>
      <trkpt lat="49.41282" lon="3.67282">
        <ele>88.21</ele>
        <time>2019-10-07T13:13:36.000Z</time>
      </trkpt>
      <trkpt lat="49.4129" lon="3.67299">
        <ele>87.29</ele>
        <time>2019-10-07T13:13:45.217Z</time>
      </trkpt>
      <trkpt lat="49.41298" lon="3.67315">
        <ele>86.05</ele>
        <time>2019-10-07T13:13:54.675Z</time>
      </trkpt>
      <trkpt lat="49.41305" lon="3.67328">
        <ele>84.91</ele>
        <time>2019-10-07T13:14:04.039Z</time>
      </trkpt>
      <trkpt lat="49.41312" lon="3.6734">
        <ele>83.74</ele>
        <time>2019-10-07T13:14:14.000Z</time>
      </trkpt>
      <trkpt lat="49.41322" lon="3.6735">
        <ele>83.16</ele>
        <time>2019-10-07T13:14:23.213Z</time>
      </trkpt>
      <trkpt lat="49.41331" lon="3.6736">
        <ele>82.79</ele>
        <time>2019-10-07T13:14:32.376Z</time>
      </trkpt>
      <trkpt lat="49.41338" lon="3.67377">
        <ele>82.55</ele>
        <time>2019-10-07T13:14:41.791Z</time>
      </trkpt>
      <trkpt lat="49.41344" lon="3.67392">
        <ele>82.03</ele>
        <time>2019-10-07T13:14:52.000Z</time>
      </trkpt>
      <trkpt lat="49.41352" lon="3.67405">
        <ele>81.58</ele>
        <time>2019-10-07T13:15:01.333Z</time>
      </trkpt>
      <trkpt lat="49.41359" lon="3.67417">
        <ele>80.8</ele>
        <time>2019-10-07T13:15:10.755Z</time>
      </trkpt>
      <trkpt lat="49.41365" lon="3.67431">
        <ele>80.07</ele>
        <time>2019-10-07T13:15:20.111Z</time>
      </trkpt>
      <trkpt lat="49.41371" lon="3.67445">
        <ele>79.75</ele>
        <time>2019-10-07T13:15:29.634Z</time>
      </trkpt>
      <trkpt lat="49.41377" lon="3.6746">
        <ele>79.3</ele>
        <time>2019-10-07T13:15:39.036Z</time>
      </trkpt>
      <trkpt lat="49.41383" lon="3.67473">
        <ele>78.6</ele>
        <time>2019-10-07T13:15:48.487Z</time>
      </trkpt>
      <trkpt lat="49.41391" lon="3.67485">
        <ele>78.57</ele>
        <time>2019-10-07T13:15:57.971Z</time>
      </trkpt>
      <trkpt lat="49.41399" lon="3.67495">
        <ele>78.48</ele>
        <time>2019-10-07T13:16:07.000Z</time>
      </trkpt>
      <trkpt lat="49.41409" lon="3.67508">
        <ele>78.77</ele>
        <time>2019-10-07T13:16:17.000Z</time>
      </trkpt>
      <trkpt lat="49.41417" lon="3.67521">
        <ele>79.19</ele>
        <time>2019-10-07T13:16:26.332Z</time>
      </trkpt>
      <trkpt lat="49.41425" lon="3.67534">
        <ele>79.34</ele>
        <time>2019-10-07T13:16:35.852Z</time>
      </trkpt>
      <trkpt lat="49.41432" lon="3.67547">
        <ele>79.69</ele>
        <time>2019-10-07T13:16:45.196Z</time>
      </trkpt>
      <trkpt lat="49.4144" lon="3.67555">
        <ele>80.24</ele>
        <time>2019-10-07T13:16:55.000Z</time>
      </trkpt>
      <trkpt lat="49.4145" lon="3.67564">
        <ele>80.7</ele>
        <time>2019-10-07T13:17:05.000Z</time>
      </trkpt>
      <trkpt lat="49.41458" lon="3.67576">
        <ele>81.06</ele>
        <time>2019-10-07T13:17:14.795Z</time>
      </trkpt>
      <trkpt lat="49.41468" lon="3.67588">
        <ele>80.98</ele>
        <time>2019-10-07T13:17:23.808Z</time>
      </trkpt>
      <trkpt lat="49.41478" lon="3.67599">
        <ele>81.06</ele>
        <time>2019-10-07T13:17:34.000Z</time>
      </trkpt>
      <trkpt lat="49.41488" lon="3.6761">
        <ele>81.32</ele>
        <time>2019-10-07T13:17:43.949Z</time>
      </trkpt>
      <trkpt lat="49.41494" lon="3.67622">
        <ele>81.44</ele>
        <time>2019-10-07T13:17:53.000Z</time>
      </trkpt>
      <trkpt lat="49.41502" lon="3.67636">
        <ele>81.39</ele>
        <time>2019-10-07T13:18:02.333Z</time>
      </trkpt>
      <trkpt lat="49.41509" lon="3.67646">
        <ele>80.38</ele>
        <time>2019-10-07T13:18:12.000Z</time>
      </trkpt>
      <trkpt lat="49.41518" lon="3.67657">
        <ele>78.98</ele>
        <time>2019-10-07T13:18:21.789Z</time>
      </trkpt>
      <trkpt lat="49.41527" lon="3.67667">
        <ele>77.99</ele>
        <time>2019-10-07T13:18:32.000Z</time>
      </trkpt>
      <trkpt lat="49.41535" lon="3.67686">
        <ele>77.33</ele>
        <time>2019-10-07T13:18:41.195Z</time>
      </trkpt>
      <trkpt lat="49.41538" lon="3.677">
        <ele>77.19</ele>
        <time>2019-10-07T13:18:51.000Z</time>
      </trkpt>
      <trkpt lat="49.41549" lon="3.67709">
        <ele>76.84</ele>
        <time>2019-10-07T13:19:01.000Z</time>
      </trkpt>
      <trkpt lat="49.41559" lon="3.67722">
        <ele>76.68</ele>
        <time>2019-10-07T13:19:10.333Z</time>
      </trkpt>
      <trkpt lat="49.41568" lon="3.67732">
        <ele>76.57</ele>
        <time>2019-10-07T13:19:20.000Z</time>
      </trkpt>
      <trkpt lat="49.41577" lon="3.67742">
        <ele>76.7</ele>
        <time>2019-10-07T13:19:29.431Z</time>
      </trkpt>
      <trkpt lat="49.41585" lon="3.67754">
        <ele>77.32</ele>
        <time>2019-10-07T13:19:38.553Z</time>
      </trkpt>
      <trkpt lat="49.41592" lon="3.67766">
        <ele>78.14</ele>
        <time>2019-10-07T13:19:48.037Z</time>
      </trkpt>
      <trkpt lat="49.41597" lon="3.67782">
        <ele>78.87</ele>
        <time>2019-10-07T13:19:57.609Z</time>
      </trkpt>
      <trkpt lat="49.41604" lon="3.67796">
        <ele>79.26</ele>
        <time>2019-10-07T13:20:06.716Z</time>
      </trkpt>
      <trkpt lat="49.41613" lon="3.67807">
        <ele>79.36</ele>
        <time>2019-10-07T13:20:17.000Z</time>
      </trkpt>
      <trkpt lat="49.41623" lon="3.67818">
        <ele>79.64</ele>
        <time>2019-10-07T13:20:27.000Z</time>
      </trkpt>
      <trkpt lat="49.41632" lon="3.6783">
        <ele>79.92</ele>
        <time>2019-10-07T13:20:37.000Z</time>
      </trkpt>
      <trkpt lat="49.4164" lon="3.67842">
        <ele>80.14</ele>
        <time>2019-10-07T13:20:46.449Z</time>
      </trkpt>
      <trkpt lat="49.41647" lon="3.67855">
        <ele>80.11</ele>
        <time>2019-10-07T13:20:56.151Z</time>
      </trkpt>
      <trkpt lat="49.41653" lon="3.67866">
        <ele>79.85</ele>
        <time>2019-10-07T13:21:05.215Z</time>
      </trkpt>
      <trkpt lat="49.41661" lon="3.67877">
        <ele>79.58</ele>
        <time>2019-10-07T13:21:15.000Z</time>
      </trkpt>
      <trkpt lat="49.41668" lon="3.6789">
        <ele>79.39</ele>
        <time>2019-10-07T13:21:25.000Z</time>
      </trkpt>
      <trkpt lat="49.41677" lon="3.67903">
        <ele>78.78</ele>
        <time>2019-10-07T13:21:35.000Z</time>
      </trkpt>
      <trkpt lat="49.4169" lon="3.67913">
        <ele>78</ele>
        <time>2019-10-07T13:21:44.871Z</time>
      </trkpt>
      <trkpt lat="49.41697" lon="3.67921">
        <ele>77.44</ele>
        <time>2019-10-07T13:21:54.000Z</time>
      </trkpt>
      <trkpt lat="49.41705" lon="3.67938">
        <ele>77.21</ele>
        <time>2019-10-07T13:22:03.329Z</time>
      </trkpt>
      <trkpt lat="49.41713" lon="3.67951">
        <ele>77.3</ele>
        <time>2019-10-07T13:22:12.772Z</time>
      </trkpt>
      <trkpt lat="49.41721" lon="3.67962">
        <ele>77.3</ele>
        <time>2019-10-07T13:22:23.000Z</time>
      </trkpt>
      <trkpt lat="49.41729" lon="3.67977">
        <ele>77.49</ele>
        <time>2019-10-07T13:22:32.449Z</time>
      </trkpt>
      <trkpt lat="49.41737" lon="3.67989">
        <ele>77.86</ele>
        <time>2019-10-07T13:22:42.000Z</time>
      </trkpt>
      <trkpt lat="49.41744" lon="3.68002">
        <ele>78.43</ele>
        <time>2019-10-07T13:22:51.231Z</time>
      </trkpt>
      <trkpt lat="49.41753" lon="3.68013">
        <ele>79.06</ele>
        <time>2019-10-07T13:23:00.713Z</time>
      </trkpt>
      <trkpt lat="49.41761" lon="3.68027">
        <ele>79.38</ele>
        <time>2019-10-07T13:23:11.000Z</time>
      </trkpt>
      <trkpt lat="49.41769" lon="3.68042">
        <ele>79.48</ele>
        <time>2019-10-07T13:23:20.149Z</time>
      </trkpt>
      <trkpt lat="49.41776" lon="3.68054">
        <ele>79.59</ele>
        <time>2019-10-07T13:23:29.233Z</time>
      </trkpt>
      <trkpt lat="49.41778" lon="3.68059">
        <ele>79.7</ele>
        <time>2019-10-07T13:23:39.000Z</time>
      </trkpt>
      <trkpt lat="49.41781" lon="3.68053">
        <ele>79.75</ele>
        <time>2019-10-07T13:23:51.000Z</time>
      </trkpt>
      <trkpt lat="49.41782" lon="3.68052">
        <ele>79.81</ele>
        <time>2019-10-07T13:24:01.000Z</time>
      </trkpt>
      <trkpt lat="49.41781" lon="3.68053">
        <ele>80.21</ele>
        <time>2019-10-07T13:24:21.000Z</time>
      </trkpt>
      <trkpt lat="49.41779" lon="3.68053">
        <ele>80.05</ele>
        <time>2019-10-07T13:24:31.000Z</time>
      </trkpt>
      <trkpt lat="49.41778" lon="3.68051">
        <ele>79.79</ele>
        <time>2019-10-07T13:24:43.000Z</time>
      </trkpt>
      <trkpt lat="49.41778" lon="3.6805">
        <ele>79.5</ele>
        <time>2019-10-07T13:25:00.000Z</time>
      </trkpt>
      <trkpt lat="49.41779" lon="3.68049">
        <ele>79.4</ele>
        <time>2019-10-07T13:25:10.000Z</time>
      </trkpt>
      <trkpt lat="49.41778" lon="3.68048">
        <ele>79.53</ele>
        <time>2019-10-07T13:25:21.000Z</time>
      </trkpt>
      <trkpt lat="49.41779" lon="3.68048">
        <ele>79.48</ele>
        <time>2019-10-07T13:25:32.000Z</time>
      </trkpt>
      <trkpt lat="49.41786" lon="3.68036">
        <ele>79</ele>
        <time>2019-10-07T13:25:42.000Z</time>
      </trkpt>
      <trkpt lat="49.41787" lon="3.68031">
        <ele>78.95</ele>
        <time>2019-10-07T13:25:52.000Z</time>
      </trkpt>
      <trkpt lat="49.41786" lon="3.68029">
        <ele>80.2</ele>
        <time>2019-10-07T13:26:02.691Z</time>
      </trkpt>
      <trkpt lat="49.4178" lon="3.68024">
        <ele>81.08</ele>
        <time>2019-10-07T13:26:12.020Z</time>
      </trkpt>
      <trkpt lat="49.41779" lon="3.68024">
        <ele>81.19</ele>
        <time>2019-10-07T13:26:22.000Z</time>
      </trkpt>
      <trkpt lat="49.4178" lon="3.68023">
        <ele>81.35</ele>
        <time>2019-10-07T13:26:32.000Z</time>
      </trkpt>
      <trkpt lat="49.41777" lon="3.68025">
        <ele>82.72</ele>
        <time>2019-10-07T13:27:12.597Z</time>
      </trkpt>
      <trkpt lat="49.41775" lon="3.68028">
        <ele>81.99</ele>
        <time>2019-10-07T13:27:22.000Z</time>
      </trkpt>
      <trkpt lat="49.41781" lon="3.68027">
        <ele>81.87</ele>
        <time>2019-10-07T13:27:32.000Z</time>
      </trkpt>
      <trkpt lat="49.41786" lon="3.68028">
        <ele>82.25</ele>
        <time>2019-10-07T13:27:42.000Z</time>
      </trkpt>
      <trkpt lat="49.4179" lon="3.68033">
        <ele>82.19</ele>
        <time>2019-10-07T13:27:52.000Z</time>
      </trkpt>
      <trkpt lat="49.41792" lon="3.68035">
        <ele>82.13</ele>
        <time>2019-10-07T13:28:02.000Z</time>
      </trkpt>
      <trkpt lat="49.41792" lon="3.68032">
        <ele>82.22</ele>
        <time>2019-10-07T13:28:29.000Z</time>
      </trkpt>
      <trkpt lat="49.41793" lon="3.68029">
        <ele>81.97</ele>
        <time>2019-10-07T13:28:40.000Z</time>
      </trkpt>
      <trkpt lat="49.41792" lon="3.68029">
        <ele>81.42</ele>
        <time>2019-10-07T13:28:50.690Z</time>
      </trkpt>
      <trkpt lat="49.41789" lon="3.68035">
        <ele>81.33</ele>
        <time>2019-10-07T13:29:00.000Z</time>
      </trkpt>
      <trkpt lat="49.41784" lon="3.68042">
        <ele>81.35</ele>
        <time>2019-10-07T13:29:10.000Z</time>
      </trkpt>
      <trkpt lat="49.41783" lon="3.68041">
        <ele>81.77</ele>
        <time>2019-10-07T13:29:20.000Z</time>
      </trkpt>
      <trkpt lat="49.41784" lon="3.68038">
        <ele>81.77</ele>
        <time>2019-10-07T13:29:30.000Z</time>
      </trkpt>
      <trkpt lat="49.41786" lon="3.68036">
        <ele>81.4</ele>
        <time>2019-10-07T13:29:40.000Z</time>
      </trkpt>
      <trkpt lat="49.41788" lon="3.68035">
        <ele>81.22</ele>
        <time>2019-10-07T13:29:50.000Z</time>
      </trkpt>
      <trkpt lat="49.4179" lon="3.68032">
        <ele>81.17</ele>
        <time>2019-10-07T13:30:00.000Z</time>
      </trkpt>
      <trkpt lat="49.41789" lon="3.68029">
        <ele>81.63</ele>
        <time>2019-10-07T13:30:32.709Z</time>
      </trkpt>
      <trkpt lat="49.41788" lon="3.68026">
        <ele>81.91</ele>
        <time>2019-10-07T13:30:41.770Z</time>
      </trkpt>
      <trkpt lat="49.41786" lon="3.68026">
        <ele>82.6</ele>
        <time>2019-10-07T13:30:51.000Z</time>
      </trkpt>
      <trkpt lat="49.41787" lon="3.68028">
        <ele>82.79</ele>
        <time>2019-10-07T13:31:01.000Z</time>
      </trkpt>
      <trkpt lat="49.41787" lon="3.6803">
        <ele>82.74</ele>
        <time>2019-10-07T13:31:12.000Z</time>
      </trkpt>
      <trkpt lat="49.41787" lon="3.68033">
        <ele>82.47</ele>
        <time>2019-10-07T13:31:22.000Z</time>
      </trkpt>
      <trkpt lat="49.41783" lon="3.68036">
        <ele>82.28</ele>
        <time>2019-10-07T13:31:31.736Z</time>
      </trkpt>
      <trkpt lat="49.41779" lon="3.68038">
        <ele>82.5</ele>
        <time>2019-10-07T13:31:42.000Z</time>
      </trkpt>
      <trkpt lat="49.41778" lon="3.68037">
        <ele>82.58</ele>
        <time>2019-10-07T13:31:52.000Z</time>
      </trkpt>
      <trkpt lat="49.41776" lon="3.68037">
        <ele>84.46</ele>
        <time>2019-10-07T13:32:31.000Z</time>
      </trkpt>
      <trkpt lat="49.41778" lon="3.6804">
        <ele>85.96</ele>
        <time>2019-10-07T13:32:40.441Z</time>
      </trkpt>
      <trkpt lat="49.41782" lon="3.68037">
        <ele>86.41</ele>
        <time>2019-10-07T13:32:51.000Z</time>
      </trkpt>
      <trkpt lat="49.41784" lon="3.68037">
        <ele>86.72</ele>
        <time>2019-10-07T13:33:01.000Z</time>
      </trkpt>
      <trkpt lat="49.4179" lon="3.68025">
        <ele>86.6</ele>
        <time>2019-10-07T13:33:11.000Z</time>
      </trkpt>
      <trkpt lat="49.41791" lon="3.68008">
        <ele>86.25</ele>
        <time>2019-10-07T13:33:20.599Z</time>
      </trkpt>
      <trkpt lat="49.41785" lon="3.67997">
        <ele>85.55</ele>
        <time>2019-10-07T13:33:30.000Z</time>
      </trkpt>
      <trkpt lat="49.41782" lon="3.67973">
        <ele>84.83</ele>
        <time>2019-10-07T13:33:39.130Z</time>
      </trkpt>
      <trkpt lat="49.4178" lon="3.67959">
        <ele>84.03</ele>
        <time>2019-10-07T13:33:49.000Z</time>
      </trkpt>
      <trkpt lat="49.41781" lon="3.67943">
        <ele>83.48</ele>
        <time>2019-10-07T13:33:58.589Z</time>
      </trkpt>
      <trkpt lat="49.41783" lon="3.67929">
        <ele>83.44</ele>
        <time>2019-10-07T13:34:08.000Z</time>
      </trkpt>
      <trkpt lat="49.41781" lon="3.67913">
        <ele>83.19</ele>
        <time>2019-10-07T13:34:17.149Z</time>
      </trkpt>
      <trkpt lat="49.41777" lon="3.679">
        <ele>82.82</ele>
        <time>2019-10-07T13:34:26.353Z</time>
      </trkpt>
      <trkpt lat="49.41775" lon="3.67886">
        <ele>82.53</ele>
        <time>2019-10-07T13:34:36.037Z</time>
      </trkpt>
      <trkpt lat="49.41774" lon="3.67871">
        <ele>82.32</ele>
        <time>2019-10-07T13:34:45.999Z</time>
      </trkpt>
      <trkpt lat="49.41773" lon="3.67853">
        <ele>82.29</ele>
        <time>2019-10-07T13:34:55.055Z</time>
      </trkpt>
      <trkpt lat="49.41773" lon="3.67836">
        <ele>82.33</ele>
        <time>2019-10-07T13:35:04.169Z</time>
      </trkpt>
      <trkpt lat="49.41772" lon="3.67819">
        <ele>82.18</ele>
        <time>2019-10-07T13:35:13.591Z</time>
      </trkpt>
      <trkpt lat="49.41772" lon="3.67804">
        <ele>82.19</ele>
        <time>2019-10-07T13:35:23.137Z</time>
      </trkpt>
      <trkpt lat="49.41771" lon="3.67791">
        <ele>82.16</ele>
        <time>2019-10-07T13:35:32.999Z</time>
      </trkpt>
      <trkpt lat="49.4177" lon="3.67775">
        <ele>81.8</ele>
        <time>2019-10-07T13:35:42.931Z</time>
      </trkpt>
      <trkpt lat="49.4177" lon="3.67761">
        <ele>81.25</ele>
        <time>2019-10-07T13:35:51.988Z</time>
      </trkpt>
      <trkpt lat="49.41771" lon="3.67746">
        <ele>81.16</ele>
        <time>2019-10-07T13:36:00.999Z</time>
      </trkpt>
      <trkpt lat="49.41773" lon="3.6773">
        <ele>81.42</ele>
        <time>2019-10-07T13:36:10.413Z</time>
      </trkpt>
      <trkpt lat="49.41775" lon="3.67714">
        <ele>82.06</ele>
        <time>2019-10-07T13:36:19.614Z</time>
      </trkpt>
      <trkpt lat="49.41777" lon="3.67698">
        <ele>82.64</ele>
        <time>2019-10-07T13:36:29.139Z</time>
      </trkpt>
      <trkpt lat="49.41777" lon="3.67682">
        <ele>83</ele>
        <time>2019-10-07T13:36:38.650Z</time>
      </trkpt>
      <trkpt lat="49.41775" lon="3.6767">
        <ele>83.31</ele>
        <time>2019-10-07T13:36:47.999Z</time>
      </trkpt>
      <trkpt lat="49.41773" lon="3.67655">
        <ele>83.52</ele>
        <time>2019-10-07T13:36:57.651Z</time>
      </trkpt>
      <trkpt lat="49.41769" lon="3.6764">
        <ele>83.89</ele>
        <time>2019-10-07T13:37:06.954Z</time>
      </trkpt>
      <trkpt lat="49.41766" lon="3.67626">
        <ele>84.74</ele>
        <time>2019-10-07T13:37:15.999Z</time>
      </trkpt>
      <trkpt lat="49.41763" lon="3.67609">
        <ele>85.77</ele>
        <time>2019-10-07T13:37:25.999Z</time>
      </trkpt>
      <trkpt lat="49.41761" lon="3.67592">
        <ele>86.63</ele>
        <time>2019-10-07T13:37:35.735Z</time>
      </trkpt>
      <trkpt lat="49.4176" lon="3.67575">
        <ele>87.41</ele>
        <time>2019-10-07T13:37:44.799Z</time>
      </trkpt>
      <trkpt lat="49.41761" lon="3.67561">
        <ele>87.93</ele>
        <time>2019-10-07T13:37:53.999Z</time>
      </trkpt>
      <trkpt lat="49.41763" lon="3.67545">
        <ele>88.26</ele>
        <time>2019-10-07T13:38:03.999Z</time>
      </trkpt>
      <trkpt lat="49.41764" lon="3.67527">
        <ele>88.42</ele>
        <time>2019-10-07T13:38:13.999Z</time>
      </trkpt>
      <trkpt lat="49.41765" lon="3.67511">
        <ele>88.55</ele>
        <time>2019-10-07T13:38:23.999Z</time>
      </trkpt>
      <trkpt lat="49.41768" lon="3.67495">
        <ele>88.45</ele>
        <time>2019-10-07T13:38:33.999Z</time>
      </trkpt>
      <trkpt lat="49.41772" lon="3.6748">
        <ele>88.38</ele>
        <time>2019-10-07T13:38:43.553Z</time>
      </trkpt>
      <trkpt lat="49.41776" lon="3.67467">
        <ele>88.39</ele>
        <time>2019-10-07T13:38:52.795Z</time>
      </trkpt>
      <trkpt lat="49.4178" lon="3.67454">
        <ele>88.41</ele>
        <time>2019-10-07T13:39:01.871Z</time>
      </trkpt>
      <trkpt lat="49.41783" lon="3.67444">
        <ele>88.68</ele>
        <time>2019-10-07T13:39:10.999Z</time>
      </trkpt>
      <trkpt lat="49.41785" lon="3.67428">
        <ele>89.45</ele>
        <time>2019-10-07T13:39:20.457Z</time>
      </trkpt>
      <trkpt lat="49.41788" lon="3.67413">
        <ele>90.45</ele>
        <time>2019-10-07T13:39:29.999Z</time>
      </trkpt>
      <trkpt lat="49.41791" lon="3.67396">
        <ele>91.7</ele>
        <time>2019-10-07T13:39:39.999Z</time>
      </trkpt>
      <trkpt lat="49.41793" lon="3.6738">
        <ele>92.69</ele>
        <time>2019-10-07T13:39:49.999Z</time>
      </trkpt>
      <trkpt lat="49.41795" lon="3.67366">
        <ele>93.12</ele>
        <time>2019-10-07T13:39:59.999Z</time>
      </trkpt>
      <trkpt lat="49.41797" lon="3.67351">
        <ele>93.61</ele>
        <time>2019-10-07T13:40:09.094Z</time>
      </trkpt>
      <trkpt lat="49.41797" lon="3.67338">
        <ele>94.18</ele>
        <time>2019-10-07T13:40:18.999Z</time>
      </trkpt>
      <trkpt lat="49.41799" lon="3.67322">
        <ele>94.8</ele>
        <time>2019-10-07T13:40:28.999Z</time>
      </trkpt>
      <trkpt lat="49.41803" lon="3.67307">
        <ele>95.34</ele>
        <time>2019-10-07T13:40:38.755Z</time>
      </trkpt>
      <trkpt lat="49.41804" lon="3.67294">
        <ele>95.83</ele>
        <time>2019-10-07T13:40:47.999Z</time>
      </trkpt>
      <trkpt lat="49.41807" lon="3.67279">
        <ele>96.34</ele>
        <time>2019-10-07T13:40:57.999Z</time>
      </trkpt>
      <trkpt lat="49.41809" lon="3.67264">
        <ele>96.69</ele>
        <time>2019-10-07T13:41:07.999Z</time>
      </trkpt>
      <trkpt lat="49.41815" lon="3.67251">
        <ele>96.77</ele>
        <time>2019-10-07T13:41:17.657Z</time>
      </trkpt>
      <trkpt lat="49.41822" lon="3.67239">
        <ele>96.72</ele>
        <time>2019-10-07T13:41:27.999Z</time>
      </trkpt>
      <trkpt lat="49.41832" lon="3.67226">
        <ele>96.82</ele>
        <time>2019-10-07T13:41:37.593Z</time>
      </trkpt>
      <trkpt lat="49.41839" lon="3.67216">
        <ele>96.84</ele>
        <time>2019-10-07T13:41:46.677Z</time>
      </trkpt>
      <trkpt lat="49.41843" lon="3.67204">
        <ele>96.46</ele>
        <time>2019-10-07T13:41:56.999Z</time>
      </trkpt>
      <trkpt lat="49.41847" lon="3.6719">
        <ele>96.49</ele>
        <time>2019-10-07T13:42:06.358Z</time>
      </trkpt>
      <trkpt lat="49.41849" lon="3.67175">
        <ele>96.45</ele>
        <time>2019-10-07T13:42:15.719Z</time>
      </trkpt>
      <trkpt lat="49.41848" lon="3.67159">
        <ele>96.19</ele>
        <time>2019-10-07T13:42:25.999Z</time>
      </trkpt>
      <trkpt lat="49.41848" lon="3.67146">
        <ele>95.52</ele>
        <time>2019-10-07T13:42:35.999Z</time>
      </trkpt>
      <trkpt lat="49.41849" lon="3.67135">
        <ele>95.15</ele>
        <time>2019-10-07T13:42:45.999Z</time>
      </trkpt>
      <trkpt lat="49.41852" lon="3.67124">
        <ele>94.86</ele>
        <time>2019-10-07T13:42:55.476Z</time>
      </trkpt>
      <trkpt lat="49.41852" lon="3.67112">
        <ele>94.58</ele>
        <time>2019-10-07T13:43:04.999Z</time>
      </trkpt>
      <trkpt lat="49.41854" lon="3.67098">
        <ele>94.3</ele>
        <time>2019-10-07T13:43:14.999Z</time>
      </trkpt>
      <trkpt lat="49.41853" lon="3.67084">
        <ele>94.41</ele>
        <time>2019-10-07T13:43:24.999Z</time>
      </trkpt>
      <trkpt lat="49.41853" lon="3.67067">
        <ele>94.46</ele>
        <time>2019-10-07T13:43:35.175Z</time>
      </trkpt>
      <trkpt lat="49.41854" lon="3.67053">
        <ele>94.56</ele>
        <time>2019-10-07T13:43:44.999Z</time>
      </trkpt>
      <trkpt lat="49.41854" lon="3.67036">
        <ele>94.78</ele>
        <time>2019-10-07T13:43:54.028Z</time>
      </trkpt>
      <trkpt lat="49.41854" lon="3.6702">
        <ele>94.87</ele>
        <time>2019-10-07T13:44:04.074Z</time>
      </trkpt>
      <trkpt lat="49.41857" lon="3.67003">
        <ele>94.88</ele>
        <time>2019-10-07T13:44:13.999Z</time>
      </trkpt>
      <trkpt lat="49.4186" lon="3.66984">
        <ele>94.79</ele>
        <time>2019-10-07T13:44:23.999Z</time>
      </trkpt>
      <trkpt lat="49.4186" lon="3.66966">
        <ele>94.45</ele>
        <time>2019-10-07T13:44:33.999Z</time>
      </trkpt>
      <trkpt lat="49.41859" lon="3.66951">
        <ele>93.92</ele>
        <time>2019-10-07T13:44:43.999Z</time>
      </trkpt>
      <trkpt lat="49.41861" lon="3.66935">
        <ele>93.36</ele>
        <time>2019-10-07T13:44:53.507Z</time>
      </trkpt>
      <trkpt lat="49.41863" lon="3.6692">
        <ele>93.06</ele>
        <time>2019-10-07T13:45:02.529Z</time>
      </trkpt>
      <trkpt lat="49.41862" lon="3.66905">
        <ele>92.82</ele>
        <time>2019-10-07T13:45:11.999Z</time>
      </trkpt>
      <trkpt lat="49.41863" lon="3.66889">
        <ele>92.84</ele>
        <time>2019-10-07T13:45:21.749Z</time>
      </trkpt>
      <trkpt lat="49.41862" lon="3.66874">
        <ele>93.4</ele>
        <time>2019-10-07T13:45:31.999Z</time>
      </trkpt>
      <trkpt lat="49.41864" lon="3.66857">
        <ele>93.98</ele>
        <time>2019-10-07T13:45:41.999Z</time>
      </trkpt>
      <trkpt lat="49.41863" lon="3.66839">
        <ele>94.59</ele>
        <time>2019-10-07T13:45:51.435Z</time>
      </trkpt>
      <trkpt lat="49.41865" lon="3.66822">
        <ele>95.05</ele>
        <time>2019-10-07T13:46:00.999Z</time>
      </trkpt>
      <trkpt lat="49.41867" lon="3.66809">
        <ele>95.19</ele>
        <time>2019-10-07T13:46:10.430Z</time>
      </trkpt>
      <trkpt lat="49.41871" lon="3.66792">
        <ele>95.06</ele>
        <time>2019-10-07T13:46:19.469Z</time>
      </trkpt>
      <trkpt lat="49.41876" lon="3.66783">
        <ele>94.89</ele>
        <time>2019-10-07T13:46:28.999Z</time>
      </trkpt>
      <trkpt lat="49.41878" lon="3.66766">
        <ele>94.9</ele>
        <time>2019-10-07T13:46:38.335Z</time>
      </trkpt>
      <trkpt lat="49.41879" lon="3.66752">
        <ele>94.78</ele>
        <time>2019-10-07T13:46:47.999Z</time>
      </trkpt>
      <trkpt lat="49.41879" lon="3.66734">
        <ele>94.74</ele>
        <time>2019-10-07T13:46:57.999Z</time>
      </trkpt>
      <trkpt lat="49.41881" lon="3.66717">
        <ele>94.78</ele>
        <time>2019-10-07T13:47:07.999Z</time>
      </trkpt>
      <trkpt lat="49.41884" lon="3.66699">
        <ele>95.37</ele>
        <time>2019-10-07T13:47:17.999Z</time>
      </trkpt>
      <trkpt lat="49.41886" lon="3.66682">
        <ele>96.14</ele>
        <time>2019-10-07T13:47:27.999Z</time>
      </trkpt>
      <trkpt lat="49.41885" lon="3.66666">
        <ele>96.67</ele>
        <time>2019-10-07T13:47:37.191Z</time>
      </trkpt>
      <trkpt lat="49.41885" lon="3.66651">
        <ele>97.07</ele>
        <time>2019-10-07T13:47:46.335Z</time>
      </trkpt>
      <trkpt lat="49.41886" lon="3.66635">
        <ele>97.45</ele>
        <time>2019-10-07T13:47:55.999Z</time>
      </trkpt>
      <trkpt lat="49.41887" lon="3.66618">
        <ele>97.92</ele>
        <time>2019-10-07T13:48:05.191Z</time>
      </trkpt>
      <trkpt lat="49.41887" lon="3.66602">
        <ele>97.99</ele>
        <time>2019-10-07T13:48:14.696Z</time>
      </trkpt>
      <trkpt lat="49.41882" lon="3.66592">
        <ele>98.04</ele>
        <time>2019-10-07T13:48:24.048Z</time>
      </trkpt>
      <trkpt lat="49.41878" lon="3.66582">
        <ele>98.33</ele>
        <time>2019-10-07T13:48:33.713Z</time>
      </trkpt>
      <trkpt lat="49.41878" lon="3.66568">
        <ele>98.13</ele>
        <time>2019-10-07T13:48:42.999Z</time>
      </trkpt>
      <trkpt lat="49.41875" lon="3.66552">
        <ele>98.42</ele>
        <time>2019-10-07T13:48:52.569Z</time>
      </trkpt>
      <trkpt lat="49.4187" lon="3.66543">
        <ele>99.28</ele>
        <time>2019-10-07T13:49:01.999Z</time>
      </trkpt>
      <trkpt lat="49.41866" lon="3.6653">
        <ele>100.39</ele>
        <time>2019-10-07T13:49:11.999Z</time>
      </trkpt>
      <trkpt lat="49.41862" lon="3.66511">
        <ele>101.39</ele>
        <time>2019-10-07T13:49:21.089Z</time>
      </trkpt>
      <trkpt lat="49.41859" lon="3.66497">
        <ele>102.4</ele>
        <time>2019-10-07T13:49:30.151Z</time>
      </trkpt>
      <trkpt lat="49.41858" lon="3.66482">
        <ele>102.79</ele>
        <time>2019-10-07T13:49:39.211Z</time>
      </trkpt>
      <trkpt lat="49.41857" lon="3.66468">
        <ele>102.92</ele>
        <time>2019-10-07T13:49:48.637Z</time>
      </trkpt>
      <trkpt lat="49.41857" lon="3.66455">
        <ele>102.8</ele>
        <time>2019-10-07T13:49:57.999Z</time>
      </trkpt>
      <trkpt lat="49.4186" lon="3.66433">
        <ele>102.98</ele>
        <time>2019-10-07T13:50:07.069Z</time>
      </trkpt>
      <trkpt lat="49.41864" lon="3.66408">
        <ele>103.6</ele>
        <time>2019-10-07T13:50:16.999Z</time>
      </trkpt>
      <trkpt lat="49.41865" lon="3.66385">
        <ele>104.37</ele>
        <time>2019-10-07T13:50:26.771Z</time>
      </trkpt>
      <trkpt lat="49.41867" lon="3.66364">
        <ele>104.73</ele>
        <time>2019-10-07T13:50:36.315Z</time>
      </trkpt>
      <trkpt lat="49.41869" lon="3.6635">
        <ele>105.02</ele>
        <time>2019-10-07T13:50:45.847Z</time>
      </trkpt>
      <trkpt lat="49.41877" lon="3.6634">
        <ele>104.9</ele>
        <time>2019-10-07T13:50:55.271Z</time>
      </trkpt>
      <trkpt lat="49.41877" lon="3.66336">
        <ele>104.57</ele>
        <time>2019-10-07T13:51:04.999Z</time>
      </trkpt>
      <trkpt lat="49.41877" lon="3.66335">
        <ele>104.47</ele>
        <time>2019-10-07T13:51:14.999Z</time>
      </trkpt>
      <trkpt lat="49.41878" lon="3.66333">
        <ele>105.6</ele>
        <time>2019-10-07T13:52:30.999Z</time>
      </trkpt>
      <trkpt lat="49.41874" lon="3.66327">
        <ele>105.44</ele>
        <time>2019-10-07T13:52:40.999Z</time>
      </trkpt>
      <trkpt lat="49.41878" lon="3.6631">
        <ele>105.14</ele>
        <time>2019-10-07T13:52:50.049Z</time>
      </trkpt>
      <trkpt lat="49.41883" lon="3.66287">
        <ele>104.5</ele>
        <time>2019-10-07T13:52:59.491Z</time>
      </trkpt>
      <trkpt lat="49.41885" lon="3.66271">
        <ele>104.03</ele>
        <time>2019-10-07T13:53:08.753Z</time>
      </trkpt>
      <trkpt lat="49.41888" lon="3.66254">
        <ele>103.78</ele>
        <time>2019-10-07T13:53:17.999Z</time>
      </trkpt>
      <trkpt lat="49.41892" lon="3.66237">
        <ele>103.58</ele>
        <time>2019-10-07T13:53:27.999Z</time>
      </trkpt>
      <trkpt lat="49.41894" lon="3.66219">
        <ele>103.21</ele>
        <time>2019-10-07T13:53:37.030Z</time>
      </trkpt>
      <trkpt lat="49.41897" lon="3.66202">
        <ele>103.13</ele>
        <time>2019-10-07T13:53:46.999Z</time>
      </trkpt>
      <trkpt lat="49.41896" lon="3.6618">
        <ele>103.47</ele>
        <time>2019-10-07T13:53:56.999Z</time>
      </trkpt>
      <trkpt lat="49.41894" lon="3.66159">
        <ele>103.83</ele>
        <time>2019-10-07T13:54:07.209Z</time>
      </trkpt>
      <trkpt lat="49.4189" lon="3.6614">
        <ele>104.02</ele>
        <time>2019-10-07T13:54:16.709Z</time>
      </trkpt>
      <trkpt lat="49.41886" lon="3.66124">
        <ele>104.34</ele>
        <time>2019-10-07T13:54:25.999Z</time>
      </trkpt>
      <trkpt lat="49.41882" lon="3.66108">
        <ele>104.57</ele>
        <time>2019-10-07T13:54:35.035Z</time>
      </trkpt>
      <trkpt lat="49.41885" lon="3.6609">
        <ele>104.43</ele>
        <time>2019-10-07T13:54:44.999Z</time>
      </trkpt>
      <trkpt lat="49.41888" lon="3.6607">
        <ele>104.09</ele>
        <time>2019-10-07T13:54:54.049Z</time>
      </trkpt>
      <trkpt lat="49.41886" lon="3.66052">
        <ele>103.62</ele>
        <time>2019-10-07T13:55:03.574Z</time>
      </trkpt>
      <trkpt lat="49.41884" lon="3.66037">
        <ele>102.85</ele>
        <time>2019-10-07T13:55:12.999Z</time>
      </trkpt>
      <trkpt lat="49.41878" lon="3.66022">
        <ele>101.99</ele>
        <time>2019-10-07T13:55:22.631Z</time>
      </trkpt>
      <trkpt lat="49.41873" lon="3.6601">
        <ele>101.54</ele>
        <time>2019-10-07T13:55:31.999Z</time>
      </trkpt>
      <trkpt lat="49.41866" lon="3.65998">
        <ele>101.07</ele>
        <time>2019-10-07T13:55:41.709Z</time>
      </trkpt>
      <trkpt lat="49.41866" lon="3.65982">
        <ele>100.47</ele>
        <time>2019-10-07T13:55:50.999Z</time>
      </trkpt>
      <trkpt lat="49.41862" lon="3.65967">
        <ele>100.24</ele>
        <time>2019-10-07T13:56:00.249Z</time>
      </trkpt>
      <trkpt lat="49.41858" lon="3.65953">
        <ele>100.47</ele>
        <time>2019-10-07T13:56:09.273Z</time>
      </trkpt>
      <trkpt lat="49.41853" lon="3.65933">
        <ele>101.38</ele>
        <time>2019-10-07T13:56:19.273Z</time>
      </trkpt>
      <trkpt lat="49.41849" lon="3.65916">
        <ele>102.92</ele>
        <time>2019-10-07T13:56:28.999Z</time>
      </trkpt>
      <trkpt lat="49.41842" lon="3.65892">
        <ele>104.4</ele>
        <time>2019-10-07T13:56:38.999Z</time>
      </trkpt>
      <trkpt lat="49.41834" lon="3.65873">
        <ele>104.64</ele>
        <time>2019-10-07T13:56:48.029Z</time>
      </trkpt>
      <trkpt lat="49.41828" lon="3.65854">
        <ele>105.11</ele>
        <time>2019-10-07T13:56:57.999Z</time>
      </trkpt>
      <trkpt lat="49.41821" lon="3.6584">
        <ele>105.48</ele>
        <time>2019-10-07T13:57:07.999Z</time>
      </trkpt>
      <trkpt lat="49.41814" lon="3.6583">
        <ele>105.32</ele>
        <time>2019-10-07T13:57:17.999Z</time>
      </trkpt>
      <trkpt lat="49.41809" lon="3.65816">
        <ele>104.83</ele>
        <time>2019-10-07T13:57:27.607Z</time>
      </trkpt>
      <trkpt lat="49.41805" lon="3.65803">
        <ele>104.95</ele>
        <time>2019-10-07T13:57:37.999Z</time>
      </trkpt>
      <trkpt lat="49.41802" lon="3.65789">
        <ele>104.81</ele>
        <time>2019-10-07T13:57:47.135Z</time>
      </trkpt>
      <trkpt lat="49.41797" lon="3.65777">
        <ele>103.97</ele>
        <time>2019-10-07T13:57:56.169Z</time>
      </trkpt>
      <trkpt lat="49.41791" lon="3.65767">
        <ele>103.05</ele>
        <time>2019-10-07T13:58:05.999Z</time>
      </trkpt>
      <trkpt lat="49.41784" lon="3.65755">
        <ele>102.05</ele>
        <time>2019-10-07T13:58:15.207Z</time>
      </trkpt>
      <trkpt lat="49.41778" lon="3.65746">
        <ele>101.07</ele>
        <time>2019-10-07T13:58:24.999Z</time>
      </trkpt>
      <trkpt lat="49.41769" lon="3.65737">
        <ele>100.18</ele>
        <time>2019-10-07T13:58:34.999Z</time>
      </trkpt>
      <trkpt lat="49.41761" lon="3.6572">
        <ele>99.68</ele>
        <time>2019-10-07T13:58:44.999Z</time>
      </trkpt>
      <trkpt lat="49.41757" lon="3.65706">
        <ele>100.13</ele>
        <time>2019-10-07T13:58:54.999Z</time>
      </trkpt>
      <trkpt lat="49.41752" lon="3.65691">
        <ele>100.54</ele>
        <time>2019-10-07T13:59:04.999Z</time>
      </trkpt>
      <trkpt lat="49.41747" lon="3.65675">
        <ele>101.34</ele>
        <time>2019-10-07T13:59:14.999Z</time>
      </trkpt>
      <trkpt lat="49.41741" lon="3.65659">
        <ele>101.81</ele>
        <time>2019-10-07T13:59:25.009Z</time>
      </trkpt>
      <trkpt lat="49.41737" lon="3.65645">
        <ele>102.1</ele>
        <time>2019-10-07T13:59:34.327Z</time>
      </trkpt>
      <trkpt lat="49.41726" lon="3.65633">
        <ele>102.03</ele>
        <time>2019-10-07T13:59:43.468Z</time>
      </trkpt>
      <trkpt lat="49.41716" lon="3.65623">
        <ele>101.81</ele>
        <time>2019-10-07T13:59:52.999Z</time>
      </trkpt>
      <trkpt lat="49.41705" lon="3.65612">
        <ele>101.28</ele>
        <time>2019-10-07T14:00:02.953Z</time>
      </trkpt>
      <trkpt lat="49.41697" lon="3.656">
        <ele>101.37</ele>
        <time>2019-10-07T14:00:12.999Z</time>
      </trkpt>
      <trkpt lat="49.41683" lon="3.65588">
        <ele>102.1</ele>
        <time>2019-10-07T14:00:22.999Z</time>
      </trkpt>
      <trkpt lat="49.41672" lon="3.65574">
        <ele>102.98</ele>
        <time>2019-10-07T14:00:32.593Z</time>
      </trkpt>
      <trkpt lat="49.4166" lon="3.65564">
        <ele>103.71</ele>
        <time>2019-10-07T14:00:42.258Z</time>
      </trkpt>
      <trkpt lat="49.41648" lon="3.6556">
        <ele>103.76</ele>
        <time>2019-10-07T14:00:51.999Z</time>
      </trkpt>
      <trkpt lat="49.41637" lon="3.65556">
        <ele>103.8</ele>
        <time>2019-10-07T14:01:01.999Z</time>
      </trkpt>
      <trkpt lat="49.41626" lon="3.65553">
        <ele>103.76</ele>
        <time>2019-10-07T14:01:11.999Z</time>
      </trkpt>
      <trkpt lat="49.41614" lon="3.65549">
        <ele>103.48</ele>
        <time>2019-10-07T14:01:21.999Z</time>
      </trkpt>
      <trkpt lat="49.41604" lon="3.65543">
        <ele>103.33</ele>
        <time>2019-10-07T14:01:31.999Z</time>
      </trkpt>
      <trkpt lat="49.41595" lon="3.65537">
        <ele>103.02</ele>
        <time>2019-10-07T14:01:41.999Z</time>
      </trkpt>
      <trkpt lat="49.41585" lon="3.65533">
        <ele>103.06</ele>
        <time>2019-10-07T14:01:51.254Z</time>
      </trkpt>
      <trkpt lat="49.41576" lon="3.65527">
        <ele>103.55</ele>
        <time>2019-10-07T14:02:01.327Z</time>
      </trkpt>
      <trkpt lat="49.41568" lon="3.65521">
        <ele>103.85</ele>
        <time>2019-10-07T14:02:10.510Z</time>
      </trkpt>
      <trkpt lat="49.41559" lon="3.65511">
        <ele>103.98</ele>
        <time>2019-10-07T14:02:19.870Z</time>
      </trkpt>
      <trkpt lat="49.41551" lon="3.65501">
        <ele>104.71</ele>
        <time>2019-10-07T14:02:28.999Z</time>
      </trkpt>
      <trkpt lat="49.41542" lon="3.65485">
        <ele>105.9</ele>
        <time>2019-10-07T14:02:38.999Z</time>
      </trkpt>
      <trkpt lat="49.41536" lon="3.65472">
        <ele>106.54</ele>
        <time>2019-10-07T14:02:48.257Z</time>
      </trkpt>
      <trkpt lat="49.41531" lon="3.65461">
        <ele>107.37</ele>
        <time>2019-10-07T14:02:57.746Z</time>
      </trkpt>
      <trkpt lat="49.41526" lon="3.65451">
        <ele>108</ele>
        <time>2019-10-07T14:03:06.932Z</time>
      </trkpt>
      <trkpt lat="49.4152" lon="3.6544">
        <ele>108.5</ele>
        <time>2019-10-07T14:03:16.999Z</time>
      </trkpt>
      <trkpt lat="49.41513" lon="3.65427">
        <ele>108.68</ele>
        <time>2019-10-07T14:03:26.999Z</time>
      </trkpt>
      <trkpt lat="49.41507" lon="3.65417">
        <ele>108.56</ele>
        <time>2019-10-07T14:03:36.358Z</time>
      </trkpt>
      <trkpt lat="49.41502" lon="3.65409">
        <ele>107.89</ele>
        <time>2019-10-07T14:03:45.999Z</time>
      </trkpt>
      <trkpt lat="49.415" lon="3.654">
        <ele>106.68</ele>
        <time>2019-10-07T14:03:55.037Z</time>
      </trkpt>
      <trkpt lat="49.41493" lon="3.65392">
        <ele>104.96</ele>
        <time>2019-10-07T14:04:04.999Z</time>
      </trkpt>
      <trkpt lat="49.41482" lon="3.65385">
        <ele>103.68</ele>
        <time>2019-10-07T14:04:14.999Z</time>
      </trkpt>
      <trkpt lat="49.41467" lon="3.65378">
        <ele>102.87</ele>
        <time>2019-10-07T14:04:24.999Z</time>
      </trkpt>
      <trkpt lat="49.41458" lon="3.65368">
        <ele>102.44</ele>
        <time>2019-10-07T14:04:34.831Z</time>
      </trkpt>
      <trkpt lat="49.41451" lon="3.65361">
        <ele>102.31</ele>
        <time>2019-10-07T14:04:43.999Z</time>
      </trkpt>
      <trkpt lat="49.4144" lon="3.65354">
        <ele>102.14</ele>
        <time>2019-10-07T14:04:53.289Z</time>
      </trkpt>
      <trkpt lat="49.41431" lon="3.6535">
        <ele>102.09</ele>
        <time>2019-10-07T14:05:02.999Z</time>
      </trkpt>
      <trkpt lat="49.41422" lon="3.65344">
        <ele>101.86</ele>
        <time>2019-10-07T14:05:12.749Z</time>
      </trkpt>
      <trkpt lat="49.41417" lon="3.65337">
        <ele>100.57</ele>
        <time>2019-10-07T14:05:21.999Z</time>
      </trkpt>
      <trkpt lat="49.41412" lon="3.65327">
        <ele>99.4</ele>
        <time>2019-10-07T14:05:31.999Z</time>
      </trkpt>
      <trkpt lat="49.41405" lon="3.65316">
        <ele>97.94</ele>
        <time>2019-10-07T14:05:41.390Z</time>
      </trkpt>
      <trkpt lat="49.41399" lon="3.65308">
        <ele>96.73</ele>
        <time>2019-10-07T14:05:50.630Z</time>
      </trkpt>
      <trkpt lat="49.41393" lon="3.65299">
        <ele>94.84</ele>
        <time>2019-10-07T14:06:00.051Z</time>
      </trkpt>
      <trkpt lat="49.41383" lon="3.6529">
        <ele>93.51</ele>
        <time>2019-10-07T14:06:09.999Z</time>
      </trkpt>
      <trkpt lat="49.41372" lon="3.65282">
        <ele>92.66</ele>
        <time>2019-10-07T14:06:19.999Z</time>
      </trkpt>
      <trkpt lat="49.41363" lon="3.65275">
        <ele>91.26</ele>
        <time>2019-10-07T14:06:29.999Z</time>
      </trkpt>
      <trkpt lat="49.41355" lon="3.65265">
        <ele>90.02</ele>
        <time>2019-10-07T14:06:39.999Z</time>
      </trkpt>
      <trkpt lat="49.41342" lon="3.65253">
        <ele>89.61</ele>
        <time>2019-10-07T14:06:49.999Z</time>
      </trkpt>
      <trkpt lat="49.41334" lon="3.6524">
        <ele>89.38</ele>
        <time>2019-10-07T14:06:59.999Z</time>
      </trkpt>
      <trkpt lat="49.41326" lon="3.6523">
        <ele>89.11</ele>
        <time>2019-10-07T14:07:09.051Z</time>
      </trkpt>
      <trkpt lat="49.41317" lon="3.65221">
        <ele>89.06</ele>
        <time>2019-10-07T14:07:18.054Z</time>
      </trkpt>
      <trkpt lat="49.41309" lon="3.65208">
        <ele>89.08</ele>
        <time>2019-10-07T14:07:27.591Z</time>
      </trkpt>
      <trkpt lat="49.41301" lon="3.65199">
        <ele>89.22</ele>
        <time>2019-10-07T14:07:36.999Z</time>
      </trkpt>
      <trkpt lat="49.41293" lon="3.65188">
        <ele>89.7</ele>
        <time>2019-10-07T14:07:46.999Z</time>
      </trkpt>
      <trkpt lat="49.41286" lon="3.65176">
        <ele>90.34</ele>
        <time>2019-10-07T14:07:56.308Z</time>
      </trkpt>
      <trkpt lat="49.41281" lon="3.65162">
        <ele>90.56</ele>
        <time>2019-10-07T14:08:06.195Z</time>
      </trkpt>
      <trkpt lat="49.41277" lon="3.65151">
        <ele>90.57</ele>
        <time>2019-10-07T14:08:15.999Z</time>
      </trkpt>
      <trkpt lat="49.41269" lon="3.65141">
        <ele>91.04</ele>
        <time>2019-10-07T14:08:25.999Z</time>
      </trkpt>
      <trkpt lat="49.41263" lon="3.65132">
        <ele>90.77</ele>
        <time>2019-10-07T14:08:35.999Z</time>
      </trkpt>
      <trkpt lat="49.41257" lon="3.65122">
        <ele>90.5</ele>
        <time>2019-10-07T14:08:45.347Z</time>
      </trkpt>
      <trkpt lat="49.41256" lon="3.65109">
        <ele>90.37</ele>
        <time>2019-10-07T14:08:54.999Z</time>
      </trkpt>
      <trkpt lat="49.41252" lon="3.65092">
        <ele>90.48</ele>
        <time>2019-10-07T14:09:04.487Z</time>
      </trkpt>
      <trkpt lat="49.41248" lon="3.65076">
        <ele>90.53</ele>
        <time>2019-10-07T14:09:14.194Z</time>
      </trkpt>
      <trkpt lat="49.41242" lon="3.65061">
        <ele>91.27</ele>
        <time>2019-10-07T14:09:23.999Z</time>
      </trkpt>
      <trkpt lat="49.41238" lon="3.65047">
        <ele>91.86</ele>
        <time>2019-10-07T14:09:33.313Z</time>
      </trkpt>
      <trkpt lat="49.41235" lon="3.65035">
        <ele>92.38</ele>
        <time>2019-10-07T14:09:42.999Z</time>
      </trkpt>
      <trkpt lat="49.41231" lon="3.65019">
        <ele>92.81</ele>
        <time>2019-10-07T14:09:52.999Z</time>
      </trkpt>
      <trkpt lat="49.41227" lon="3.65002">
        <ele>93.08</ele>
        <time>2019-10-07T14:10:02.999Z</time>
      </trkpt>
      <trkpt lat="49.41219" lon="3.64986">
        <ele>93.33</ele>
        <time>2019-10-07T14:10:12.999Z</time>
      </trkpt>
      <trkpt lat="49.41211" lon="3.64973">
        <ele>92.99</ele>
        <time>2019-10-07T14:10:22.999Z</time>
      </trkpt>
      <trkpt lat="49.41204" lon="3.64961">
        <ele>92.64</ele>
        <time>2019-10-07T14:10:32.999Z</time>
      </trkpt>
      <trkpt lat="49.4119" lon="3.64947">
        <ele>92.19</ele>
        <time>2019-10-07T14:10:42.895Z</time>
      </trkpt>
      <trkpt lat="49.4118" lon="3.64935">
        <ele>91.57</ele>
        <time>2019-10-07T14:10:51.999Z</time>
      </trkpt>
      <trkpt lat="49.41175" lon="3.64923">
        <ele>91.27</ele>
        <time>2019-10-07T14:11:01.046Z</time>
      </trkpt>
      <trkpt lat="49.41171" lon="3.64908">
        <ele>91.39</ele>
        <time>2019-10-07T14:11:10.999Z</time>
      </trkpt>
      <trkpt lat="49.41168" lon="3.64894">
        <ele>91.07</ele>
        <time>2019-10-07T14:11:20.546Z</time>
      </trkpt>
      <trkpt lat="49.41162" lon="3.64881">
        <ele>90.67</ele>
        <time>2019-10-07T14:11:29.999Z</time>
      </trkpt>
      <trkpt lat="49.41154" lon="3.64871">
        <ele>90.65</ele>
        <time>2019-10-07T14:11:39.050Z</time>
      </trkpt>
      <trkpt lat="49.41148" lon="3.64858">
        <ele>91.32</ele>
        <time>2019-10-07T14:11:48.999Z</time>
      </trkpt>
      <trkpt lat="49.4114" lon="3.64844">
        <ele>92.15</ele>
        <time>2019-10-07T14:11:58.112Z</time>
      </trkpt>
      <trkpt lat="49.41133" lon="3.64833">
        <ele>93.14</ele>
        <time>2019-10-07T14:12:07.166Z</time>
      </trkpt>
      <trkpt lat="49.41127" lon="3.64821">
        <ele>93.65</ele>
        <time>2019-10-07T14:12:16.545Z</time>
      </trkpt>
      <trkpt lat="49.41116" lon="3.64811">
        <ele>93.52</ele>
        <time>2019-10-07T14:12:25.869Z</time>
      </trkpt>
      <trkpt lat="49.41105" lon="3.64803">
        <ele>93.62</ele>
        <time>2019-10-07T14:12:34.871Z</time>
      </trkpt>
      <trkpt lat="49.41096" lon="3.64792">
        <ele>93.8</ele>
        <time>2019-10-07T14:12:44.193Z</time>
      </trkpt>
      <trkpt lat="49.41087" lon="3.64782">
        <ele>94.09</ele>
        <time>2019-10-07T14:12:53.999Z</time>
      </trkpt>
      <trkpt lat="49.41078" lon="3.64773">
        <ele>93.84</ele>
        <time>2019-10-07T14:13:03.273Z</time>
      </trkpt>
      <trkpt lat="49.41069" lon="3.64763">
        <ele>93.83</ele>
        <time>2019-10-07T14:13:12.909Z</time>
      </trkpt>
      <trkpt lat="49.4106" lon="3.64754">
        <ele>94.69</ele>
        <time>2019-10-07T14:13:21.953Z</time>
      </trkpt>
      <trkpt lat="49.41049" lon="3.64747">
        <ele>95.81</ele>
        <time>2019-10-07T14:13:30.999Z</time>
      </trkpt>
      <trkpt lat="49.41038" lon="3.64745">
        <ele>96.88</ele>
        <time>2019-10-07T14:13:40.162Z</time>
      </trkpt>
      <trkpt lat="49.41026" lon="3.64745">
        <ele>97.97</ele>
        <time>2019-10-07T14:13:49.344Z</time>
      </trkpt>
      <trkpt lat="49.41015" lon="3.64752">
        <ele>99.02</ele>
        <time>2019-10-07T14:13:58.999Z</time>
      </trkpt>
      <trkpt lat="49.41005" lon="3.64764">
        <ele>99.62</ele>
        <time>2019-10-07T14:14:08.999Z</time>
      </trkpt>
      <trkpt lat="49.40993" lon="3.64771">
        <ele>99.81</ele>
        <time>2019-10-07T14:14:18.999Z</time>
      </trkpt>
      <trkpt lat="49.4098" lon="3.64766">
        <ele>99.8</ele>
        <time>2019-10-07T14:14:28.344Z</time>
      </trkpt>
      <trkpt lat="49.4097" lon="3.64755">
        <ele>99.7</ele>
        <time>2019-10-07T14:14:37.626Z</time>
      </trkpt>
      <trkpt lat="49.4096" lon="3.64744">
        <ele>100.03</ele>
        <time>2019-10-07T14:14:46.999Z</time>
      </trkpt>
      <trkpt lat="49.40952" lon="3.64731">
        <ele>100.68</ele>
        <time>2019-10-07T14:14:56.999Z</time>
      </trkpt>
      <trkpt lat="49.40943" lon="3.64716">
        <ele>100.71</ele>
        <time>2019-10-07T14:15:06.628Z</time>
      </trkpt>
      <trkpt lat="49.40935" lon="3.64703">
        <ele>100.03</ele>
        <time>2019-10-07T14:15:16.999Z</time>
      </trkpt>
      <trkpt lat="49.4093" lon="3.64687">
        <ele>98.4</ele>
        <time>2019-10-07T14:15:26.281Z</time>
      </trkpt>
      <trkpt lat="49.4093" lon="3.64669">
        <ele>96.84</ele>
        <time>2019-10-07T14:15:36.126Z</time>
      </trkpt>
      <trkpt lat="49.40931" lon="3.64662">
        <ele>96.36</ele>
        <time>2019-10-07T14:15:45.999Z</time>
      </trkpt>
      <trkpt lat="49.4093" lon="3.64658">
        <ele>94.85</ele>
        <time>2019-10-07T14:16:29.999Z</time>
      </trkpt>
      <trkpt lat="49.40929" lon="3.64654">
        <ele>93.77</ele>
        <time>2019-10-07T14:16:39.999Z</time>
      </trkpt>
      <trkpt lat="49.40928" lon="3.64654">
        <ele>93.39</ele>
        <time>2019-10-07T14:16:49.999Z</time>
      </trkpt>
      <trkpt lat="49.40923" lon="3.6465">
        <ele>93.56</ele>
        <time>2019-10-07T14:16:59.999Z</time>
      </trkpt>
      <trkpt lat="49.40922" lon="3.64657">
        <ele>93.93</ele>
        <time>2019-10-07T14:17:09.999Z</time>
      </trkpt>
      <trkpt lat="49.40922" lon="3.64659">
        <ele>94.16</ele>
        <time>2019-10-07T14:17:19.999Z</time>
      </trkpt>
      <trkpt lat="49.4092" lon="3.64659">
        <ele>94.18</ele>
        <time>2019-10-07T14:17:29.999Z</time>
      </trkpt>
      <trkpt lat="49.40929" lon="3.6466">
        <ele>94.34</ele>
        <time>2019-10-07T14:17:39.999Z</time>
      </trkpt>
      <trkpt lat="49.40929" lon="3.64666">
        <ele>95.12</ele>
        <time>2019-10-07T14:17:49.999Z</time>
      </trkpt>
      <trkpt lat="49.40923" lon="3.6466">
        <ele>96.23</ele>
        <time>2019-10-07T14:17:59.999Z</time>
      </trkpt>
      <trkpt lat="49.40922" lon="3.64664">
        <ele>96.56</ele>
        <time>2019-10-07T14:18:09.999Z</time>
      </trkpt>
      <trkpt lat="49.40923" lon="3.64665">
        <ele>97.68</ele>
        <time>2019-10-07T14:18:19.999Z</time>
      </trkpt>
      <trkpt lat="49.40929" lon="3.64662">
        <ele>98.2</ele>
        <time>2019-10-07T14:18:29.999Z</time>
      </trkpt>
      <trkpt lat="49.40931" lon="3.64663">
        <ele>98.09</ele>
        <time>2019-10-07T14:18:39.999Z</time>
      </trkpt>
      <trkpt lat="49.40933" lon="3.64662">
        <ele>97.47</ele>
        <time>2019-10-07T14:18:49.999Z</time>
      </trkpt>
      <trkpt lat="49.40931" lon="3.64665">
        <ele>96.74</ele>
        <time>2019-10-07T14:18:59.999Z</time>
      </trkpt>
      <trkpt lat="49.40933" lon="3.64671">
        <ele>95.82</ele>
        <time>2019-10-07T14:19:09.999Z</time>
      </trkpt>
      <trkpt lat="49.40937" lon="3.64672">
        <ele>94.93</ele>
        <time>2019-10-07T14:19:19.999Z</time>
      </trkpt>
      <trkpt lat="49.4094" lon="3.64662">
        <ele>93.94</ele>
        <time>2019-10-07T14:19:29.999Z</time>
      </trkpt>
      <trkpt lat="49.40939" lon="3.6466">
        <ele>91.75</ele>
        <time>2019-10-07T14:21:53.999Z</time>
      </trkpt>
      <trkpt lat="49.40935" lon="3.64649">
        <ele>91.79</ele>
        <time>2019-10-07T14:22:03.582Z</time>
      </trkpt>
      <trkpt lat="49.4092" lon="3.64637">
        <ele>92.2</ele>
        <time>2019-10-07T14:22:12.744Z</time>
      </trkpt>
      <trkpt lat="49.40902" lon="3.64629">
        <ele>92.55</ele>
        <time>2019-10-07T14:22:21.906Z</time>
      </trkpt>
      <trkpt lat="49.40894" lon="3.64622">
        <ele>92.47</ele>
        <time>2019-10-07T14:22:31.999Z</time>
      </trkpt>
      <trkpt lat="49.40886" lon="3.64616">
        <ele>91.64</ele>
        <time>2019-10-07T14:22:41.107Z</time>
      </trkpt>
      <trkpt lat="49.40874" lon="3.64613">
        <ele>90.32</ele>
        <time>2019-10-07T14:22:50.624Z</time>
      </trkpt>
      <trkpt lat="49.40857" lon="3.64614">
        <ele>90.09</ele>
        <time>2019-10-07T14:23:00.108Z</time>
      </trkpt>
      <trkpt lat="49.40844" lon="3.64613">
        <ele>89.95</ele>
        <time>2019-10-07T14:23:10.000Z</time>
      </trkpt>
      <trkpt lat="49.40833" lon="3.6461">
        <ele>89.89</ele>
        <time>2019-10-07T14:23:19.985Z</time>
      </trkpt>
      <trkpt lat="49.40824" lon="3.64611">
        <ele>89.27</ele>
        <time>2019-10-07T14:23:28.999Z</time>
      </trkpt>
      <trkpt lat="49.40813" lon="3.64615">
        <ele>88.72</ele>
        <time>2019-10-07T14:23:38.999Z</time>
      </trkpt>
      <trkpt lat="49.40808" lon="3.64613">
        <ele>88.25</ele>
        <time>2019-10-07T14:23:48.566Z</time>
      </trkpt>
      <trkpt lat="49.40803" lon="3.64602">
        <ele>87.34</ele>
        <time>2019-10-07T14:23:57.999Z</time>
      </trkpt>
      <trkpt lat="49.40809" lon="3.64576">
        <ele>86.14</ele>
        <time>2019-10-07T14:24:07.287Z</time>
      </trkpt>
      <trkpt lat="49.40812" lon="3.64557">
        <ele>84.67</ele>
        <time>2019-10-07T14:24:16.540Z</time>
      </trkpt>
      <trkpt lat="49.40811" lon="3.64532">
        <ele>83.25</ele>
        <time>2019-10-07T14:24:25.822Z</time>
      </trkpt>
      <trkpt lat="49.4081" lon="3.64516">
        <ele>82.12</ele>
        <time>2019-10-07T14:24:34.999Z</time>
      </trkpt>
      <trkpt lat="49.40799" lon="3.64513">
        <ele>80.89</ele>
        <time>2019-10-07T14:24:44.082Z</time>
      </trkpt>
      <trkpt lat="49.4079" lon="3.64519">
        <ele>79.73</ele>
        <time>2019-10-07T14:24:53.664Z</time>
      </trkpt>
      <trkpt lat="49.40781" lon="3.64532">
        <ele>79.12</ele>
        <time>2019-10-07T14:25:03.208Z</time>
      </trkpt>
      <trkpt lat="49.40772" lon="3.64535">
        <ele>78.55</ele>
        <time>2019-10-07T14:25:12.698Z</time>
      </trkpt>
      <trkpt lat="49.40757" lon="3.64541">
        <ele>77.98</ele>
        <time>2019-10-07T14:25:22.183Z</time>
      </trkpt>
      <trkpt lat="49.40747" lon="3.64543">
        <ele>76.9</ele>
        <time>2019-10-07T14:25:31.999Z</time>
      </trkpt>
      <trkpt lat="49.40737" lon="3.64545">
        <ele>75.9</ele>
        <time>2019-10-07T14:25:41.999Z</time>
      </trkpt>
      <trkpt lat="49.40726" lon="3.64547">
        <ele>75.67</ele>
        <time>2019-10-07T14:25:51.345Z</time>
      </trkpt>
      <trkpt lat="49.40714" lon="3.64553">
        <ele>75.61</ele>
        <time>2019-10-07T14:26:01.020Z</time>
      </trkpt>
      <trkpt lat="49.40705" lon="3.64553">
        <ele>75.61</ele>
        <time>2019-10-07T14:26:10.743Z</time>
      </trkpt>
      <trkpt lat="49.40694" lon="3.64556">
        <ele>76.19</ele>
        <time>2019-10-07T14:26:20.999Z</time>
      </trkpt>
      <trkpt lat="49.40682" lon="3.6456">
        <ele>76.33</ele>
        <time>2019-10-07T14:26:30.999Z</time>
      </trkpt>
      <trkpt lat="49.40669" lon="3.64559">
        <ele>76.71</ele>
        <time>2019-10-07T14:26:40.486Z</time>
      </trkpt>
      <trkpt lat="49.40659" lon="3.6456">
        <ele>77.11</ele>
        <time>2019-10-07T14:26:50.002Z</time>
      </trkpt>
      <trkpt lat="49.40646" lon="3.64567">
        <ele>77.14</ele>
        <time>2019-10-07T14:26:59.999Z</time>
      </trkpt>
      <trkpt lat="49.40633" lon="3.64574">
        <ele>77.21</ele>
        <time>2019-10-07T14:27:09.207Z</time>
      </trkpt>
      <trkpt lat="49.40622" lon="3.64579">
        <ele>77.48</ele>
        <time>2019-10-07T14:27:18.761Z</time>
      </trkpt>
      <trkpt lat="49.40611" lon="3.64577">
        <ele>77.61</ele>
        <time>2019-10-07T14:27:28.999Z</time>
      </trkpt>
      <trkpt lat="49.40602" lon="3.64575">
        <ele>76.57</ele>
        <time>2019-10-07T14:27:38.586Z</time>
      </trkpt>
      <trkpt lat="49.40593" lon="3.64573">
        <ele>75.48</ele>
        <time>2019-10-07T14:27:47.866Z</time>
      </trkpt>
      <trkpt lat="49.40583" lon="3.64572">
        <ele>75.23</ele>
        <time>2019-10-07T14:27:57.999Z</time>
      </trkpt>
      <trkpt lat="49.40573" lon="3.64569">
        <ele>75.29</ele>
        <time>2019-10-07T14:28:07.999Z</time>
      </trkpt>
      <trkpt lat="49.40563" lon="3.64564">
        <ele>75.38</ele>
        <time>2019-10-07T14:28:17.347Z</time>
      </trkpt>
      <trkpt lat="49.40554" lon="3.6456">
        <ele>75.75</ele>
        <time>2019-10-07T14:28:26.999Z</time>
      </trkpt>
      <trkpt lat="49.40545" lon="3.64554">
        <ele>76.24</ele>
        <time>2019-10-07T14:28:36.999Z</time>
      </trkpt>
      <trkpt lat="49.40535" lon="3.6455">
        <ele>76.86</ele>
        <time>2019-10-07T14:28:46.368Z</time>
      </trkpt>
      <trkpt lat="49.40523" lon="3.64546">
        <ele>77.47</ele>
        <time>2019-10-07T14:28:55.919Z</time>
      </trkpt>
      <trkpt lat="49.40512" lon="3.64539">
        <ele>78.1</ele>
        <time>2019-10-07T14:29:05.402Z</time>
      </trkpt>
      <trkpt lat="49.40501" lon="3.64533">
        <ele>78.05</ele>
        <time>2019-10-07T14:29:14.646Z</time>
      </trkpt>
      <trkpt lat="49.40492" lon="3.64529">
        <ele>78.01</ele>
        <time>2019-10-07T14:29:23.678Z</time>
      </trkpt>
      <trkpt lat="49.40482" lon="3.64525">
        <ele>77.96</ele>
        <time>2019-10-07T14:29:32.762Z</time>
      </trkpt>
      <trkpt lat="49.40472" lon="3.64522">
        <ele>77.98</ele>
        <time>2019-10-07T14:29:41.802Z</time>
      </trkpt>
      <trkpt lat="49.40463" lon="3.64518">
        <ele>77.88</ele>
        <time>2019-10-07T14:29:50.999Z</time>
      </trkpt>
      <trkpt lat="49.40451" lon="3.64517">
        <ele>77.98</ele>
        <time>2019-10-07T14:30:00.999Z</time>
      </trkpt>
      <trkpt lat="49.4044" lon="3.64511">
        <ele>77.3</ele>
        <time>2019-10-07T14:30:10.999Z</time>
      </trkpt>
      <trkpt lat="49.40432" lon="3.64504">
        <ele>77.18</ele>
        <time>2019-10-07T14:30:20.625Z</time>
      </trkpt>
      <trkpt lat="49.40424" lon="3.64499">
        <ele>77.2</ele>
        <time>2019-10-07T14:30:29.627Z</time>
      </trkpt>
      <trkpt lat="49.40415" lon="3.64498">
        <ele>76.04</ele>
        <time>2019-10-07T14:30:39.049Z</time>
      </trkpt>
      <trkpt lat="49.40404" lon="3.64498">
        <ele>73.98</ele>
        <time>2019-10-07T14:30:48.999Z</time>
      </trkpt>
      <trkpt lat="49.40403" lon="3.64502">
        <ele>72.86</ele>
        <time>2019-10-07T14:30:58.999Z</time>
      </trkpt>
      <trkpt lat="49.40395" lon="3.64504">
        <ele>72.22</ele>
        <time>2019-10-07T14:31:08.846Z</time>
      </trkpt>
      <trkpt lat="49.40385" lon="3.64509">
        <ele>71.65</ele>
        <time>2019-10-07T14:31:17.999Z</time>
      </trkpt>
      <trkpt lat="49.40375" lon="3.64517">
        <ele>71.14</ele>
        <time>2019-10-07T14:31:27.741Z</time>
      </trkpt>
      <trkpt lat="49.40368" lon="3.6453">
        <ele>71.48</ele>
        <time>2019-10-07T14:31:37.999Z</time>
      </trkpt>
      <trkpt lat="49.40366" lon="3.64545">
        <ele>72.71</ele>
        <time>2019-10-07T14:31:47.224Z</time>
      </trkpt>
      <trkpt lat="49.40359" lon="3.64564">
        <ele>75.18</ele>
        <time>2019-10-07T14:31:56.639Z</time>
      </trkpt>
      <trkpt lat="49.40351" lon="3.64574">
        <ele>77.47</ele>
        <time>2019-10-07T14:32:05.685Z</time>
      </trkpt>
      <trkpt lat="49.40343" lon="3.64579">
        <ele>80.21</ele>
        <time>2019-10-07T14:32:14.999Z</time>
      </trkpt>
      <trkpt lat="49.4033" lon="3.64585">
        <ele>82.92</ele>
        <time>2019-10-07T14:32:24.837Z</time>
      </trkpt>
      <trkpt lat="49.40319" lon="3.64591">
        <ele>85.31</ele>
        <time>2019-10-07T14:32:33.999Z</time>
      </trkpt>
      <trkpt lat="49.40311" lon="3.64599">
        <ele>87.29</ele>
        <time>2019-10-07T14:32:43.644Z</time>
      </trkpt>
      <trkpt lat="49.40304" lon="3.64612">
        <ele>89.09</ele>
        <time>2019-10-07T14:32:52.763Z</time>
      </trkpt>
      <trkpt lat="49.40297" lon="3.64621">
        <ele>90.44</ele>
        <time>2019-10-07T14:33:01.885Z</time>
      </trkpt>
      <trkpt lat="49.40287" lon="3.64627">
        <ele>92.08</ele>
        <time>2019-10-07T14:33:10.999Z</time>
      </trkpt>
      <trkpt lat="49.40276" lon="3.64633">
        <ele>94.08</ele>
        <time>2019-10-07T14:33:20.763Z</time>
      </trkpt>
      <trkpt lat="49.40266" lon="3.64643">
        <ele>96.43</ele>
        <time>2019-10-07T14:33:30.197Z</time>
      </trkpt>
      <trkpt lat="49.40257" lon="3.64653">
        <ele>98.16</ele>
        <time>2019-10-07T14:33:39.201Z</time>
      </trkpt>
      <trkpt lat="49.40248" lon="3.64665">
        <ele>99.77</ele>
        <time>2019-10-07T14:33:48.764Z</time>
      </trkpt>
      <trkpt lat="49.4024" lon="3.64675">
        <ele>101.08</ele>
        <time>2019-10-07T14:33:58.042Z</time>
      </trkpt>
      <trkpt lat="49.40232" lon="3.64685">
        <ele>102.04</ele>
        <time>2019-10-07T14:34:07.548Z</time>
      </trkpt>
      <trkpt lat="49.40224" lon="3.64693">
        <ele>102.49</ele>
        <time>2019-10-07T14:34:16.739Z</time>
      </trkpt>
      <trkpt lat="49.40213" lon="3.647">
        <ele>103.08</ele>
        <time>2019-10-07T14:34:25.877Z</time>
      </trkpt>
      <trkpt lat="49.40203" lon="3.64706">
        <ele>104.06</ele>
        <time>2019-10-07T14:34:34.901Z</time>
      </trkpt>
      <trkpt lat="49.40194" lon="3.64714">
        <ele>105.5</ele>
        <time>2019-10-07T14:34:43.999Z</time>
      </trkpt>
      <trkpt lat="49.40183" lon="3.64723">
        <ele>106.91</ele>
        <time>2019-10-07T14:34:53.503Z</time>
      </trkpt>
      <trkpt lat="49.40175" lon="3.64732">
        <ele>108.12</ele>
        <time>2019-10-07T14:35:02.918Z</time>
      </trkpt>
      <trkpt lat="49.40164" lon="3.6474">
        <ele>108.81</ele>
        <time>2019-10-07T14:35:12.443Z</time>
      </trkpt>
      <trkpt lat="49.40153" lon="3.64743">
        <ele>109.01</ele>
        <time>2019-10-07T14:35:21.719Z</time>
      </trkpt>
      <trkpt lat="49.40144" lon="3.64748">
        <ele>109.41</ele>
        <time>2019-10-07T14:35:30.964Z</time>
      </trkpt>
      <trkpt lat="49.40137" lon="3.64756">
        <ele>108.49</ele>
        <time>2019-10-07T14:35:39.999Z</time>
      </trkpt>
      <trkpt lat="49.40132" lon="3.64767">
        <ele>107.83</ele>
        <time>2019-10-07T14:35:49.417Z</time>
      </trkpt>
      <trkpt lat="49.40119" lon="3.64768">
        <ele>107.37</ele>
        <time>2019-10-07T14:35:58.883Z</time>
      </trkpt>
      <trkpt lat="49.4011" lon="3.64768">
        <ele>106.83</ele>
        <time>2019-10-07T14:36:07.999Z</time>
      </trkpt>
      <trkpt lat="49.40099" lon="3.64771">
        <ele>106.17</ele>
        <time>2019-10-07T14:36:17.879Z</time>
      </trkpt>
      <trkpt lat="49.40089" lon="3.64775">
        <ele>105.62</ele>
        <time>2019-10-07T14:36:27.999Z</time>
      </trkpt>
      <trkpt lat="49.40081" lon="3.64777">
        <ele>105.6</ele>
        <time>2019-10-07T14:36:37.999Z</time>
      </trkpt>
      <trkpt lat="49.40078" lon="3.64775">
        <ele>105.29</ele>
        <time>2019-10-07T14:36:47.583Z</time>
      </trkpt>
      <trkpt lat="49.40067" lon="3.64773">
        <ele>104.71</ele>
        <time>2019-10-07T14:36:56.807Z</time>
      </trkpt>
      <trkpt lat="49.40055" lon="3.6477">
        <ele>104.33</ele>
        <time>2019-10-07T14:37:06.221Z</time>
      </trkpt>
      <trkpt lat="49.40047" lon="3.64769">
        <ele>104.47</ele>
        <time>2019-10-07T14:37:15.237Z</time>
      </trkpt>
      <trkpt lat="49.40038" lon="3.64772">
        <ele>104.67</ele>
        <time>2019-10-07T14:37:24.299Z</time>
      </trkpt>
      <trkpt lat="49.40025" lon="3.64775">
        <ele>105.08</ele>
        <time>2019-10-07T14:37:33.999Z</time>
      </trkpt>
      <trkpt lat="49.40015" lon="3.64778">
        <ele>105.31</ele>
        <time>2019-10-07T14:37:43.000Z</time>
      </trkpt>
      <trkpt lat="49.40004" lon="3.64782">
        <ele>105.75</ele>
        <time>2019-10-07T14:37:52.523Z</time>
      </trkpt>
      <trkpt lat="49.39995" lon="3.64792">
        <ele>106.03</ele>
        <time>2019-10-07T14:38:01.904Z</time>
      </trkpt>
      <trkpt lat="49.39987" lon="3.64807">
        <ele>106.23</ele>
        <time>2019-10-07T14:38:11.837Z</time>
      </trkpt>
      <trkpt lat="49.39982" lon="3.64819">
        <ele>106.26</ele>
        <time>2019-10-07T14:38:20.959Z</time>
      </trkpt>
      <trkpt lat="49.39976" lon="3.64832">
        <ele>106.01</ele>
        <time>2019-10-07T14:38:30.000Z</time>
      </trkpt>
      <trkpt lat="49.3997" lon="3.64845">
        <ele>105.3</ele>
        <time>2019-10-07T14:38:39.464Z</time>
      </trkpt>
      <trkpt lat="49.39965" lon="3.64864">
        <ele>104.17</ele>
        <time>2019-10-07T14:38:48.823Z</time>
      </trkpt>
      <trkpt lat="49.39959" lon="3.64877">
        <ele>103.08</ele>
        <time>2019-10-07T14:38:57.966Z</time>
      </trkpt>
      <trkpt lat="49.39949" lon="3.64886">
        <ele>101.86</ele>
        <time>2019-10-07T14:39:07.219Z</time>
      </trkpt>
      <trkpt lat="49.39941" lon="3.64892">
        <ele>100.98</ele>
        <time>2019-10-07T14:39:16.703Z</time>
      </trkpt>
      <trkpt lat="49.39932" lon="3.64904">
        <ele>100.25</ele>
        <time>2019-10-07T14:39:26.676Z</time>
      </trkpt>
      <trkpt lat="49.39925" lon="3.64918">
        <ele>99.95</ele>
        <time>2019-10-07T14:39:36.000Z</time>
      </trkpt>
      <trkpt lat="49.39918" lon="3.64933">
        <ele>99.85</ele>
        <time>2019-10-07T14:39:45.468Z</time>
      </trkpt>
      <trkpt lat="49.39911" lon="3.64948">
        <ele>99.77</ele>
        <time>2019-10-07T14:39:55.000Z</time>
      </trkpt>
      <trkpt lat="49.39903" lon="3.64962">
        <ele>99.92</ele>
        <time>2019-10-07T14:40:04.763Z</time>
      </trkpt>
      <trkpt lat="49.39896" lon="3.64977">
        <ele>100.22</ele>
        <time>2019-10-07T14:40:14.059Z</time>
      </trkpt>
      <trkpt lat="49.3989" lon="3.64993">
        <ele>100.64</ele>
        <time>2019-10-07T14:40:23.302Z</time>
      </trkpt>
      <trkpt lat="49.39883" lon="3.65004">
        <ele>101.06</ele>
        <time>2019-10-07T14:40:33.000Z</time>
      </trkpt>
      <trkpt lat="49.39875" lon="3.65015">
        <ele>101.47</ele>
        <time>2019-10-07T14:40:42.639Z</time>
      </trkpt>
      <trkpt lat="49.39867" lon="3.65027">
        <ele>101.9</ele>
        <time>2019-10-07T14:40:52.157Z</time>
      </trkpt>
      <trkpt lat="49.39862" lon="3.65041">
        <ele>102.13</ele>
        <time>2019-10-07T14:41:01.603Z</time>
      </trkpt>
      <trkpt lat="49.39858" lon="3.65057">
        <ele>102.07</ele>
        <time>2019-10-07T14:41:10.787Z</time>
      </trkpt>
      <trkpt lat="49.39848" lon="3.65078">
        <ele>101.68</ele>
        <time>2019-10-07T14:41:19.885Z</time>
      </trkpt>
      <trkpt lat="49.39843" lon="3.65094">
        <ele>101.18</ele>
        <time>2019-10-07T14:41:29.323Z</time>
      </trkpt>
      <trkpt lat="49.39836" lon="3.65108">
        <ele>100.56</ele>
        <time>2019-10-07T14:41:38.444Z</time>
      </trkpt>
      <trkpt lat="49.3983" lon="3.65117">
        <ele>99.93</ele>
        <time>2019-10-07T14:41:47.539Z</time>
      </trkpt>
      <trkpt lat="49.39826" lon="3.65128">
        <ele>99.24</ele>
        <time>2019-10-07T14:41:56.603Z</time>
      </trkpt>
      <trkpt lat="49.39822" lon="3.65139">
        <ele>98.87</ele>
        <time>2019-10-07T14:42:05.738Z</time>
      </trkpt>
      <trkpt lat="49.39814" lon="3.65152">
        <ele>98.82</ele>
        <time>2019-10-07T14:42:15.000Z</time>
      </trkpt>
      <trkpt lat="49.39808" lon="3.65167">
        <ele>98.39</ele>
        <time>2019-10-07T14:42:24.143Z</time>
      </trkpt>
      <trkpt lat="49.39806" lon="3.65183">
        <ele>76.55</ele>
        <time>2019-10-07T14:42:33.378Z</time>
      </trkpt>
      <trkpt lat="49.39812" lon="3.65191">
        <ele>76.55</ele>
        <time>2019-10-07T14:42:42.482Z</time>
      </trkpt>
      <trkpt lat="49.3981" lon="3.65206">
        <ele>76.55</ele>
        <time>2019-10-07T14:42:51.563Z</time>
      </trkpt>
      <trkpt lat="49.39803" lon="3.65218">
        <ele>76.55</ele>
        <time>2019-10-07T14:43:00.580Z</time>
      </trkpt>
      <trkpt lat="49.39794" lon="3.65232">
        <ele>76.55</ele>
        <time>2019-10-07T14:43:09.788Z</time>
      </trkpt>
      <trkpt lat="49.39784" lon="3.65239">
        <ele>76.55</ele>
        <time>2019-10-07T14:43:19.044Z</time>
      </trkpt>
      <trkpt lat="49.39773" lon="3.65239">
        <ele>76.55</ele>
        <time>2019-10-07T14:43:29.000Z</time>
      </trkpt>
      <trkpt lat="49.39762" lon="3.65246">
        <ele>76.55</ele>
        <time>2019-10-07T14:43:38.829Z</time>
      </trkpt>
      <trkpt lat="49.39752" lon="3.65255">
        <ele>76.55</ele>
        <time>2019-10-07T14:43:48.000Z</time>
      </trkpt>
      <trkpt lat="49.39744" lon="3.65265">
        <ele>76.55</ele>
        <time>2019-10-07T14:43:57.807Z</time>
      </trkpt>
      <trkpt lat="49.39735" lon="3.65271">
        <ele>91.61</ele>
        <time>2019-10-07T14:44:07.000Z</time>
      </trkpt>
      <trkpt lat="49.39732" lon="3.65266">
        <ele>90.58</ele>
        <time>2019-10-07T14:44:17.000Z</time>
      </trkpt>
      <trkpt lat="49.39731" lon="3.65268">
        <ele>89.63</ele>
        <time>2019-10-07T14:44:27.000Z</time>
      </trkpt>
      <trkpt lat="49.39732" lon="3.65276">
        <ele>88.62</ele>
        <time>2019-10-07T14:44:37.000Z</time>
      </trkpt>
      <trkpt lat="49.39734" lon="3.65282">
        <ele>88.08</ele>
        <time>2019-10-07T14:44:47.000Z</time>
      </trkpt>
      <trkpt lat="49.39735" lon="3.6529">
        <ele>87.03</ele>
        <time>2019-10-07T14:44:57.000Z</time>
      </trkpt>
      <trkpt lat="49.39736" lon="3.65286">
        <ele>84.94</ele>
        <time>2019-10-07T14:45:07.000Z</time>
      </trkpt>
      <trkpt lat="49.39738" lon="3.65272">
        <ele>84.27</ele>
        <time>2019-10-07T14:45:17.000Z</time>
      </trkpt>
      <trkpt lat="49.39738" lon="3.65264">
        <ele>83.36</ele>
        <time>2019-10-07T14:45:27.000Z</time>
      </trkpt>
      <trkpt lat="49.39737" lon="3.65263">
        <ele>80.63</ele>
        <time>2019-10-07T14:45:51.000Z</time>
      </trkpt>
      <trkpt lat="49.39737" lon="3.65268">
        <ele>76.55</ele>
        <time>2019-10-07T14:46:01.000Z</time>
      </trkpt>
      <trkpt lat="49.39735" lon="3.65269">
        <ele>76.55</ele>
        <time>2019-10-07T14:46:11.000Z</time>
      </trkpt>
      <trkpt lat="49.39736" lon="3.65272">
        <ele>76.55</ele>
        <time>2019-10-07T14:46:21.000Z</time>
      </trkpt>
      <trkpt lat="49.39736" lon="3.6528">
        <ele>76.55</ele>
        <time>2019-10-07T14:46:31.000Z</time>
      </trkpt>
      <trkpt lat="49.39736" lon="3.65274">
        <ele>76.55</ele>
        <time>2019-10-07T14:46:41.000Z</time>
      </trkpt>
      <trkpt lat="49.39735" lon="3.6527">
        <ele>76.55</ele>
        <time>2019-10-07T14:46:51.000Z</time>
      </trkpt>
      <trkpt lat="49.39736" lon="3.65272">
        <ele>76.55</ele>
        <time>2019-10-07T14:47:18.000Z</time>
      </trkpt>
      <trkpt lat="49.39732" lon="3.65282">
        <ele>76.55</ele>
        <time>2019-10-07T14:47:28.000Z</time>
      </trkpt>
      <trkpt lat="49.39724" lon="3.65297">
        <ele>76.55</ele>
        <time>2019-10-07T14:47:37.502Z</time>
      </trkpt>
      <trkpt lat="49.39709" lon="3.65319">
        <ele>76.55</ele>
        <time>2019-10-07T14:47:47.000Z</time>
      </trkpt>
      <trkpt lat="49.39699" lon="3.65335">
        <ele>76.55</ele>
        <time>2019-10-07T14:47:56.366Z</time>
      </trkpt>
      <trkpt lat="49.39689" lon="3.65349">
        <ele>85.99</ele>
        <time>2019-10-07T14:48:06.000Z</time>
      </trkpt>
      <trkpt lat="49.39678" lon="3.6536">
        <ele>86.69</ele>
        <time>2019-10-07T14:48:15.390Z</time>
      </trkpt>
      <trkpt lat="49.39671" lon="3.65375">
        <ele>87.43</ele>
        <time>2019-10-07T14:48:24.766Z</time>
      </trkpt>
      <trkpt lat="49.39664" lon="3.65386">
        <ele>87.81</ele>
        <time>2019-10-07T14:48:34.000Z</time>
      </trkpt>
      <trkpt lat="49.39658" lon="3.65393">
        <ele>88.09</ele>
        <time>2019-10-07T14:48:44.000Z</time>
      </trkpt>
      <trkpt lat="49.39645" lon="3.65399">
        <ele>87.94</ele>
        <time>2019-10-07T14:48:53.430Z</time>
      </trkpt>
      <trkpt lat="49.39635" lon="3.65406">
        <ele>87.71</ele>
        <time>2019-10-07T14:49:02.442Z</time>
      </trkpt>
      <trkpt lat="49.39628" lon="3.65421">
        <ele>87.07</ele>
        <time>2019-10-07T14:49:12.000Z</time>
      </trkpt>
      <trkpt lat="49.39618" lon="3.6543">
        <ele>86.24</ele>
        <time>2019-10-07T14:49:21.086Z</time>
      </trkpt>
      <trkpt lat="49.3961" lon="3.65434">
        <ele>66.16</ele>
        <time>2019-10-07T14:49:31.000Z</time>
      </trkpt>
      <trkpt lat="49.39603" lon="3.65445">
        <ele>65.85</ele>
        <time>2019-10-07T14:49:40.149Z</time>
      </trkpt>
      <trkpt lat="49.396" lon="3.6545">
        <ele>65.85</ele>
        <time>2019-10-07T14:49:50.000Z</time>
      </trkpt>
      <trkpt lat="49.39595" lon="3.65451">
        <ele>65.85</ele>
        <time>2019-10-07T14:49:59.444Z</time>
      </trkpt>
      <trkpt lat="49.39585" lon="3.65463">
        <ele>65.85</ele>
        <time>2019-10-07T14:50:09.000Z</time>
      </trkpt>
      <trkpt lat="49.39582" lon="3.65473">
        <ele>65.85</ele>
        <time>2019-10-07T14:50:19.000Z</time>
      </trkpt>
      <trkpt lat="49.39583" lon="3.6547">
        <ele>65.85</ele>
        <time>2019-10-07T14:50:27.000Z</time>
      </trkpt>
    </trkseg>
  </trk>
</gpx>